<?xml version="1.0" encoding="UTF-8" standalone="no" ?>
<gpx xmlns="http://www.topografix.com/GPX/1/1" xmlns:xsi="http://www.w3.org/2001/XMLSchema-instance" xsi:schemaLocation="http://www.topografix.com/GPX/1/1 http://www.topografix.com/GPX/1/1/gpx.xsd" version="1.1" creator="VisuGPX - https://www.visugpx.com">
  <metadata>
    <name>vallée de Chaudefour - sommet du Sancy</name>
    <desc><![CDATA[2015-08 - Vallée réserve de Chaudefour - les crêtes - Puy Ferrand - sommet du Sancy - Puy de Cacadogne

[b]album[/b] : [url]https://goo.gl/photos/fhLYXwik1JVNKUhaA[/url]
[img]https://2.bp.blogspot.com/-IB3x5i9OxqU/WMrOVCdW-_I/AAAAAAAAQzE/TundouzQcr0r_CuuZ4hhFssJtVmfImwOQCLcB/s1600/2015-08_volcans-Auvergne_Photos_i2.jpg[/img]
[b]Idées de randonnées dans la même région[/b]
Parcours : [url]https://www.visugpx.com/membres/24856/montagne/massif-central/[/url]
Photos : [url]https://jcvertygo.blogspot.com/p/massif-central.html[/url]]]></desc>
  </metadata>
  <trk>
    <name><![CDATA[vallée de Chaudefour - sommet du Sancy_1]]></name>
    <trkseg>
      <trkpt lat="45.5395" lon="2.86016">
        <ele>1117.4</ele>
        <time>2015-08-18T06:52:51Z</time>
      </trkpt>
      <trkpt lat="45.53953" lon="2.86005">
        <ele>1117.4</ele>
        <time>2015-08-18T06:53:00Z</time>
      </trkpt>
      <trkpt lat="45.5395" lon="2.85991">
        <ele>1121.0700783047</ele>
        <time>2015-08-18T06:53:03Z</time>
      </trkpt>
      <trkpt lat="45.53952" lon="2.85989">
        <ele>1121.0700783047</ele>
        <time>2015-08-18T06:53:08Z</time>
      </trkpt>
      <trkpt lat="45.53954" lon="2.85983">
        <ele>1121.0700783047</ele>
        <time>2015-08-18T06:53:15Z</time>
      </trkpt>
      <trkpt lat="45.53951" lon="2.85962">
        <ele>1125.7146224242</ele>
        <time>2015-08-18T06:53:33Z</time>
      </trkpt>
      <trkpt lat="45.53956" lon="2.85907">
        <ele>1129.3094783348</ele>
        <time>2015-08-18T06:54:03Z</time>
      </trkpt>
      <trkpt lat="45.53946" lon="2.85874">
        <ele>1131.1611906274</ele>
        <time>2015-08-18T06:54:26Z</time>
      </trkpt>
      <trkpt lat="45.53911" lon="2.85828">
        <ele>1132.2536885993</ele>
        <time>2015-08-18T06:55:06Z</time>
      </trkpt>
      <trkpt lat="45.53904" lon="2.85827">
        <ele>1132.2536885993</ele>
        <time>2015-08-18T06:55:13Z</time>
      </trkpt>
      <trkpt lat="45.53889" lon="2.85828">
        <ele>1133.8305076291</ele>
        <time>2015-08-18T06:55:16Z</time>
      </trkpt>
      <trkpt lat="45.53885" lon="2.85821">
        <ele>1133.8305076291</ele>
        <time>2015-08-18T06:55:24Z</time>
      </trkpt>
      <trkpt lat="45.53885" lon="2.85818">
        <ele>1133.8305076291</ele>
        <time>2015-08-18T06:55:26Z</time>
      </trkpt>
      <trkpt lat="45.53884" lon="2.85813">
        <ele>1135.2405979615</ele>
        <time>2015-08-18T06:55:31Z</time>
      </trkpt>
      <trkpt lat="45.53883" lon="2.85812">
        <ele>1135.2405979615</ele>
        <time>2015-08-18T06:55:38Z</time>
      </trkpt>
      <trkpt lat="45.53881" lon="2.85775">
        <ele>1135.6995751309</ele>
        <time>2015-08-18T06:56:36Z</time>
      </trkpt>
      <trkpt lat="45.53888" lon="2.85748">
        <ele>1136.0610320227</ele>
        <time>2015-08-18T06:56:56Z</time>
      </trkpt>
      <trkpt lat="45.53876" lon="2.8574">
        <ele>1135.971285901</ele>
        <time>2015-08-18T06:57:04Z</time>
      </trkpt>
      <trkpt lat="45.53873" lon="2.85739">
        <ele>1135.971285901</ele>
        <time>2015-08-18T06:57:06Z</time>
      </trkpt>
      <trkpt lat="45.53866" lon="2.85735">
        <ele>1135.3755762169</ele>
        <time>2015-08-18T06:57:11Z</time>
      </trkpt>
      <trkpt lat="45.53839" lon="2.85717">
        <ele>1134.2863699078</ele>
        <time>2015-08-18T06:57:36Z</time>
      </trkpt>
      <trkpt lat="45.5383" lon="2.85687">
        <ele>1133.0033107936</ele>
        <time>2015-08-18T06:58:03Z</time>
      </trkpt>
      <trkpt lat="45.5383" lon="2.85684">
        <ele>1133.0033107936</ele>
        <time>2015-08-18T06:58:08Z</time>
      </trkpt>
      <trkpt lat="45.53824" lon="2.85683">
        <ele>1133.0033107936</ele>
        <time>2015-08-18T06:58:17Z</time>
      </trkpt>
      <trkpt lat="45.53827" lon="2.85683">
        <ele>1131.6170294636</ele>
        <time>2015-08-18T06:58:17Z</time>
      </trkpt>
      <trkpt lat="45.53871" lon="2.85681">
        <ele>1133.4486053606</ele>
        <time>2015-08-18T06:59:01Z</time>
      </trkpt>
      <trkpt lat="45.53855" lon="2.85635">
        <ele>1138.4391517901</ele>
        <time>2015-08-18T06:59:34Z</time>
      </trkpt>
      <trkpt lat="45.53854" lon="2.85633">
        <ele>1138.4391517901</ele>
        <time>2015-08-18T06:59:44Z</time>
      </trkpt>
      <trkpt lat="45.53848" lon="2.85624">
        <ele>1142.7878589648</ele>
        <time>2015-08-18T06:59:54Z</time>
      </trkpt>
      <trkpt lat="45.53847" lon="2.85602">
        <ele>1146.6310938321</ele>
        <time>2015-08-18T06:59:57Z</time>
      </trkpt>
      <trkpt lat="45.53846" lon="2.85587">
        <ele>1149.9356627701</ele>
        <time>2015-08-18T07:00:04Z</time>
      </trkpt>
      <trkpt lat="45.53847" lon="2.85584">
        <ele>1149.9356627701</ele>
        <time>2015-08-18T07:00:06Z</time>
      </trkpt>
      <trkpt lat="45.53848" lon="2.85546">
        <ele>1152.8647805314</ele>
        <time>2015-08-18T07:00:33Z</time>
      </trkpt>
      <trkpt lat="45.53816" lon="2.85504">
        <ele>1156.0098904084</ele>
        <time>2015-08-18T07:00:46Z</time>
      </trkpt>
      <trkpt lat="45.53805" lon="2.85482">
        <ele>1159.365930597</ele>
        <time>2015-08-18T07:01:00Z</time>
      </trkpt>
      <trkpt lat="45.53804" lon="2.8548">
        <ele>1159.365930597</ele>
        <time>2015-08-18T07:01:01Z</time>
      </trkpt>
      <trkpt lat="45.53799" lon="2.85473">
        <ele>1159.365930597</ele>
        <time>2015-08-18T07:01:06Z</time>
      </trkpt>
      <trkpt lat="45.53747" lon="2.85411">
        <ele>1163.1207632963</ele>
        <time>2015-08-18T07:02:04Z</time>
      </trkpt>
      <trkpt lat="45.53741" lon="2.85401">
        <ele>1166.4912215822</ele>
        <time>2015-08-18T07:02:06Z</time>
      </trkpt>
      <trkpt lat="45.53738" lon="2.85355">
        <ele>1169.5039345659</ele>
        <time>2015-08-18T07:02:56Z</time>
      </trkpt>
      <trkpt lat="45.537" lon="2.85317">
        <ele>1172.5983194429</ele>
        <time>2015-08-18T07:03:07Z</time>
      </trkpt>
      <trkpt lat="45.53694" lon="2.85308">
        <ele>1172.5983194429</ele>
        <time>2015-08-18T07:03:21Z</time>
      </trkpt>
      <trkpt lat="45.5368" lon="2.85246">
        <ele>1175.3222170996</ele>
        <time>2015-08-18T07:04:04Z</time>
      </trkpt>
      <trkpt lat="45.53683" lon="2.85237">
        <ele>1175.3222170996</ele>
        <time>2015-08-18T07:04:10Z</time>
      </trkpt>
      <trkpt lat="45.53686" lon="2.85224">
        <ele>1178.2024777456</ele>
        <time>2015-08-18T07:04:12Z</time>
      </trkpt>
      <trkpt lat="45.53713" lon="2.85137">
        <ele>1181.4313563778</ele>
        <time>2015-08-18T07:05:02Z</time>
      </trkpt>
      <trkpt lat="45.53713" lon="2.85136">
        <ele>1181.4313563778</ele>
        <time>2015-08-18T07:05:03Z</time>
      </trkpt>
      <trkpt lat="45.53718" lon="2.85129">
        <ele>1181.4313563778</ele>
        <time>2015-08-18T07:05:09Z</time>
      </trkpt>
      <trkpt lat="45.53721" lon="2.85122">
        <ele>1184.2635716705</ele>
        <time>2015-08-18T07:05:11Z</time>
      </trkpt>
      <trkpt lat="45.53743" lon="2.85047">
        <ele>1187.28365692</ele>
        <time>2015-08-18T07:06:04Z</time>
      </trkpt>
      <trkpt lat="45.53743" lon="2.85042">
        <ele>1187.28365692</ele>
        <time>2015-08-18T07:06:06Z</time>
      </trkpt>
      <trkpt lat="45.53745" lon="2.85033">
        <ele>1189.9876542175</ele>
        <time>2015-08-18T07:06:12Z</time>
      </trkpt>
      <trkpt lat="45.53745" lon="2.85022">
        <ele>1189.9876542175</ele>
        <time>2015-08-18T07:06:16Z</time>
      </trkpt>
      <trkpt lat="45.53748" lon="2.85011">
        <ele>1192.395312824</ele>
        <time>2015-08-18T07:06:33Z</time>
      </trkpt>
      <trkpt lat="45.53768" lon="2.84962">
        <ele>1195.0529675923</ele>
        <time>2015-08-18T07:07:03Z</time>
      </trkpt>
      <trkpt lat="45.53771" lon="2.84957">
        <ele>1195.0529675923</ele>
        <time>2015-08-18T07:07:06Z</time>
      </trkpt>
      <trkpt lat="45.53778" lon="2.8494">
        <ele>1197.4123505789</ele>
        <time>2015-08-18T07:07:16Z</time>
      </trkpt>
      <trkpt lat="45.53782" lon="2.8492">
        <ele>1199.4354292945</ele>
        <time>2015-08-18T07:07:27Z</time>
      </trkpt>
      <trkpt lat="45.53784" lon="2.8491">
        <ele>1199.4354292945</ele>
        <time>2015-08-18T07:07:42Z</time>
      </trkpt>
      <trkpt lat="45.53787" lon="2.84881">
        <ele>1201.4393937999</ele>
        <time>2015-08-18T07:08:00Z</time>
      </trkpt>
      <trkpt lat="45.53789" lon="2.84861">
        <ele>1203.2150973815</ele>
        <time>2015-08-18T07:08:04Z</time>
      </trkpt>
      <trkpt lat="45.53787" lon="2.84858">
        <ele>1203.2150973815</ele>
        <time>2015-08-18T07:08:06Z</time>
      </trkpt>
      <trkpt lat="45.538" lon="2.8477">
        <ele>1205.5076384416</ele>
        <time>2015-08-18T07:09:06Z</time>
      </trkpt>
      <trkpt lat="45.53842" lon="2.84718">
        <ele>1208.4926810734</ele>
        <time>2015-08-18T07:10:06Z</time>
      </trkpt>
      <trkpt lat="45.53817" lon="2.84654">
        <ele>1211.4959707433</ele>
        <time>2015-08-18T07:11:00Z</time>
      </trkpt>
      <trkpt lat="45.5381" lon="2.84654">
        <ele>1211.4959707433</ele>
        <time>2015-08-18T07:11:04Z</time>
      </trkpt>
      <trkpt lat="45.53808" lon="2.84654">
        <ele>1211.4959707433</ele>
        <time>2015-08-18T07:11:06Z</time>
      </trkpt>
      <trkpt lat="45.53801" lon="2.84655">
        <ele>1214.1247126044</ele>
        <time>2015-08-18T07:11:11Z</time>
      </trkpt>
      <trkpt lat="45.53732" lon="2.84662">
        <ele>1216.7412701651</ele>
        <time>2015-08-18T07:12:06Z</time>
      </trkpt>
      <trkpt lat="45.53728" lon="2.84659">
        <ele>1216.7412701651</ele>
        <time>2015-08-18T07:12:20Z</time>
      </trkpt>
      <trkpt lat="45.53705" lon="2.84655">
        <ele>1218.9517106628</ele>
        <time>2015-08-18T07:12:37Z</time>
      </trkpt>
      <trkpt lat="45.53703" lon="2.84653">
        <ele>1218.9517106628</ele>
        <time>2015-08-18T07:12:37Z</time>
      </trkpt>
      <trkpt lat="45.53683" lon="2.84632">
        <ele>1220.6232386314</ele>
        <time>2015-08-18T07:13:06Z</time>
      </trkpt>
      <trkpt lat="45.53677" lon="2.84629">
        <ele>1220.6232386314</ele>
        <time>2015-08-18T07:13:11Z</time>
      </trkpt>
      <trkpt lat="45.5363" lon="2.84589">
        <ele>1222.423525408</ele>
        <time>2015-08-18T07:14:06Z</time>
      </trkpt>
      <trkpt lat="45.53583" lon="2.84542">
        <ele>1224.9796487758</ele>
        <time>2015-08-18T07:15:05Z</time>
      </trkpt>
      <trkpt lat="45.53583" lon="2.84541">
        <ele>1224.9796487758</ele>
        <time>2015-08-18T07:15:06Z</time>
      </trkpt>
      <trkpt lat="45.53539" lon="2.84522">
        <ele>1227.9592784009</ele>
        <time>2015-08-18T07:16:05Z</time>
      </trkpt>
      <trkpt lat="45.53529" lon="2.84514">
        <ele>1230.3867036614</ele>
        <time>2015-08-18T07:17:05Z</time>
      </trkpt>
      <trkpt lat="45.53511" lon="2.84509">
        <ele>1232.5459330064</ele>
        <time>2015-08-18T07:17:26Z</time>
      </trkpt>
      <trkpt lat="45.53502" lon="2.8451">
        <ele>1234.6120120614</ele>
        <time>2015-08-18T07:17:46Z</time>
      </trkpt>
      <trkpt lat="45.53487" lon="2.84516">
        <ele>1236.3399725141</ele>
        <time>2015-08-18T07:17:56Z</time>
      </trkpt>
      <trkpt lat="45.53469" lon="2.84529">
        <ele>1237.9575937527</ele>
        <time>2015-08-18T07:18:11Z</time>
      </trkpt>
      <trkpt lat="45.53468" lon="2.8453">
        <ele>1237.9575937527</ele>
        <time>2015-08-18T07:18:36Z</time>
      </trkpt>
      <trkpt lat="45.5346" lon="2.84533">
        <ele>1238.75505988</ele>
        <time>2015-08-18T07:18:41Z</time>
      </trkpt>
      <trkpt lat="45.53436" lon="2.84541">
        <ele>1238.8958282293</ele>
        <time>2015-08-18T07:19:11Z</time>
      </trkpt>
      <trkpt lat="45.53433" lon="2.84546">
        <ele>1238.8958282293</ele>
        <time>2015-08-18T07:19:15Z</time>
      </trkpt>
      <trkpt lat="45.5343" lon="2.84553">
        <ele>1238.7285680248</ele>
        <time>2015-08-18T07:19:21Z</time>
      </trkpt>
      <trkpt lat="45.53407" lon="2.84545">
        <ele>1238.273887069</ele>
        <time>2015-08-18T07:19:52Z</time>
      </trkpt>
      <trkpt lat="45.53399" lon="2.84542">
        <ele>1238.273887069</ele>
        <time>2015-08-18T07:19:52Z</time>
      </trkpt>
      <trkpt lat="45.53369" lon="2.84549">
        <ele>1237.7462416365</ele>
        <time>2015-08-18T07:20:21Z</time>
      </trkpt>
      <trkpt lat="45.53352" lon="2.84549">
        <ele>1237.5365332869</ele>
        <time>2015-08-18T07:20:52Z</time>
      </trkpt>
      <trkpt lat="45.53345" lon="2.84547">
        <ele>1237.5365332869</ele>
        <time>2015-08-18T07:21:05Z</time>
      </trkpt>
      <trkpt lat="45.53345" lon="2.84547">
        <ele>1237.5365332869</ele>
        <time>2015-08-18T07:21:06Z</time>
      </trkpt>
      <trkpt lat="45.53329" lon="2.84548">
        <ele>1237.6728756752</ele>
        <time>2015-08-18T07:21:21Z</time>
      </trkpt>
      <trkpt lat="45.53331" lon="2.84547">
        <ele>1237.6728756752</ele>
        <time>2015-08-18T07:21:33Z</time>
      </trkpt>
      <trkpt lat="45.5332" lon="2.84558">
        <ele>1237.9560267979</ele>
        <time>2015-08-18T07:21:46Z</time>
      </trkpt>
      <trkpt lat="45.53314" lon="2.84563">
        <ele>1237.9560267979</ele>
        <time>2015-08-18T07:22:11Z</time>
      </trkpt>
      <trkpt lat="45.53305" lon="2.84565">
        <ele>1238.2621349523</ele>
        <time>2015-08-18T07:22:16Z</time>
      </trkpt>
      <trkpt lat="45.53304" lon="2.84568">
        <ele>1238.2621349523</ele>
        <time>2015-08-18T07:22:23Z</time>
      </trkpt>
      <trkpt lat="45.53303" lon="2.84574">
        <ele>1238.2621349523</ele>
        <time>2015-08-18T07:22:28Z</time>
      </trkpt>
      <trkpt lat="45.53302" lon="2.846">
        <ele>1238.4922391154</ele>
        <time>2015-08-18T07:22:57Z</time>
      </trkpt>
      <trkpt lat="45.53318" lon="2.84602">
        <ele>1238.6591318534</ele>
        <time>2015-08-18T07:23:11Z</time>
      </trkpt>
      <trkpt lat="45.53324" lon="2.84608">
        <ele>1238.6591318534</ele>
        <time>2015-08-18T07:23:23Z</time>
      </trkpt>
      <trkpt lat="45.53322" lon="2.84611">
        <ele>1238.9661656354</ele>
        <time>2015-08-18T07:23:28Z</time>
      </trkpt>
      <trkpt lat="45.53329" lon="2.84627">
        <ele>1239.5844231696</ele>
        <time>2015-08-18T07:23:50Z</time>
      </trkpt>
      <trkpt lat="45.5333" lon="2.84626">
        <ele>1239.5844231696</ele>
        <time>2015-08-18T07:24:00Z</time>
      </trkpt>
      <trkpt lat="45.53344" lon="2.84628">
        <ele>1240.3762604301</ele>
        <time>2015-08-18T07:24:21Z</time>
      </trkpt>
      <trkpt lat="45.53348" lon="2.84631">
        <ele>1240.3762604301</ele>
        <time>2015-08-18T07:24:21Z</time>
      </trkpt>
      <trkpt lat="45.53347" lon="2.84638">
        <ele>1241.4052538679</ele>
        <time>2015-08-18T07:24:30Z</time>
      </trkpt>
      <trkpt lat="45.53356" lon="2.84636">
        <ele>1241.4052538679</ele>
        <time>2015-08-18T07:24:38Z</time>
      </trkpt>
      <trkpt lat="45.5341" lon="2.84689">
        <ele>1243.1529835222</ele>
        <time>2015-08-18T07:26:21Z</time>
      </trkpt>
      <trkpt lat="45.53411" lon="2.8469">
        <ele>1243.1529835222</ele>
        <time>2015-08-18T07:26:21Z</time>
      </trkpt>
      <trkpt lat="45.53412" lon="2.84691">
        <ele>1243.1529835222</ele>
        <time>2015-08-18T07:26:28Z</time>
      </trkpt>
      <trkpt lat="45.53432" lon="2.84712">
        <ele>1245.899569327</ele>
        <time>2015-08-18T07:27:21Z</time>
      </trkpt>
      <trkpt lat="45.53433" lon="2.84714">
        <ele>1245.899569327</ele>
        <time>2015-08-18T07:27:30Z</time>
      </trkpt>
      <trkpt lat="45.53435" lon="2.84715">
        <ele>1245.899569327</ele>
        <time>2015-08-18T07:27:31Z</time>
      </trkpt>
      <trkpt lat="45.53438" lon="2.84719">
        <ele>1245.899569327</ele>
        <time>2015-08-18T07:27:36Z</time>
      </trkpt>
      <trkpt lat="45.5344" lon="2.84722">
        <ele>1248.7058459976</ele>
        <time>2015-08-18T07:27:41Z</time>
      </trkpt>
      <trkpt lat="45.53451" lon="2.84743">
        <ele>1251.7402704222</ele>
        <time>2015-08-18T07:28:18Z</time>
      </trkpt>
      <trkpt lat="45.53452" lon="2.84743">
        <ele>1251.7402704222</ele>
        <time>2015-08-18T07:28:23Z</time>
      </trkpt>
      <trkpt lat="45.53453" lon="2.84742">
        <ele>1251.7402704222</ele>
        <time>2015-08-18T07:28:33Z</time>
      </trkpt>
      <trkpt lat="45.53453" lon="2.84742">
        <ele>1251.7402704222</ele>
        <time>2015-08-18T07:28:50Z</time>
      </trkpt>
      <trkpt lat="45.53462" lon="2.84739">
        <ele>1255.5638557093</ele>
        <time>2015-08-18T07:29:28Z</time>
      </trkpt>
      <trkpt lat="45.53463" lon="2.84751">
        <ele>1255.5638557093</ele>
        <time>2015-08-18T07:32:36Z</time>
      </trkpt>
      <trkpt lat="45.53464" lon="2.84752">
        <ele>1260.2128493617</ele>
        <time>2015-08-18T07:32:41Z</time>
      </trkpt>
      <trkpt lat="45.53468" lon="2.84755">
        <ele>1260.2128493617</ele>
        <time>2015-08-18T07:32:46Z</time>
      </trkpt>
      <trkpt lat="45.53469" lon="2.84758">
        <ele>1260.2128493617</ele>
        <time>2015-08-18T07:32:51Z</time>
      </trkpt>
      <trkpt lat="45.53469" lon="2.84763">
        <ele>1264.4148635316</ele>
        <time>2015-08-18T07:32:56Z</time>
      </trkpt>
      <trkpt lat="45.53472" lon="2.84766">
        <ele>1264.4148635316</ele>
        <time>2015-08-18T07:33:01Z</time>
      </trkpt>
      <trkpt lat="45.53474" lon="2.84771">
        <ele>1264.4148635316</ele>
        <time>2015-08-18T07:33:06Z</time>
      </trkpt>
      <trkpt lat="45.53477" lon="2.84773">
        <ele>1268.1985849336</ele>
        <time>2015-08-18T07:33:11Z</time>
      </trkpt>
      <trkpt lat="45.53479" lon="2.84777">
        <ele>1268.1985849336</ele>
        <time>2015-08-18T07:33:16Z</time>
      </trkpt>
      <trkpt lat="45.5348" lon="2.84781">
        <ele>1268.1985849336</ele>
        <time>2015-08-18T07:33:21Z</time>
      </trkpt>
      <trkpt lat="45.53481" lon="2.84785">
        <ele>1271.6201680683</ele>
        <time>2015-08-18T07:33:26Z</time>
      </trkpt>
      <trkpt lat="45.53483" lon="2.84787">
        <ele>1271.6201680683</ele>
        <time>2015-08-18T07:33:31Z</time>
      </trkpt>
      <trkpt lat="45.53485" lon="2.84789">
        <ele>1271.6201680683</ele>
        <time>2015-08-18T07:33:36Z</time>
      </trkpt>
      <trkpt lat="45.53488" lon="2.84792">
        <ele>1271.6201680683</ele>
        <time>2015-08-18T07:33:41Z</time>
      </trkpt>
      <trkpt lat="45.53491" lon="2.84796">
        <ele>1274.7176948883</ele>
        <time>2015-08-18T07:33:46Z</time>
      </trkpt>
      <trkpt lat="45.53496" lon="2.84799">
        <ele>1274.7176948883</ele>
        <time>2015-08-18T07:33:51Z</time>
      </trkpt>
      <trkpt lat="45.53497" lon="2.84806">
        <ele>1277.5703190662</ele>
        <time>2015-08-18T07:33:56Z</time>
      </trkpt>
      <trkpt lat="45.53498" lon="2.84808">
        <ele>1277.5703190662</ele>
        <time>2015-08-18T07:34:01Z</time>
      </trkpt>
      <trkpt lat="45.535" lon="2.84811">
        <ele>1277.5703190662</ele>
        <time>2015-08-18T07:34:06Z</time>
      </trkpt>
      <trkpt lat="45.53505" lon="2.84826">
        <ele>1280.309445421</ele>
        <time>2015-08-18T07:34:26Z</time>
      </trkpt>
      <trkpt lat="45.53506" lon="2.84831">
        <ele>1280.309445421</ele>
        <time>2015-08-18T07:34:31Z</time>
      </trkpt>
      <trkpt lat="45.53504" lon="2.84839">
        <ele>1282.7970630706</ele>
        <time>2015-08-18T07:34:39Z</time>
      </trkpt>
      <trkpt lat="45.53504" lon="2.8484">
        <ele>1282.7970630706</ele>
        <time>2015-08-18T07:34:41Z</time>
      </trkpt>
      <trkpt lat="45.53516" lon="2.84857">
        <ele>1285.136902215</ele>
        <time>2015-08-18T07:35:03Z</time>
      </trkpt>
      <trkpt lat="45.53527" lon="2.84873">
        <ele>1287.4397253466</ele>
        <time>2015-08-18T07:35:24Z</time>
      </trkpt>
      <trkpt lat="45.53526" lon="2.84895">
        <ele>1289.5197455573</ele>
        <time>2015-08-18T07:35:44Z</time>
      </trkpt>
      <trkpt lat="45.53526" lon="2.84899">
        <ele>1289.5197455573</ele>
        <time>2015-08-18T07:35:46Z</time>
      </trkpt>
      <trkpt lat="45.53533" lon="2.84937">
        <ele>1292.1427400276</ele>
        <time>2015-08-18T07:36:15Z</time>
      </trkpt>
      <trkpt lat="45.53534" lon="2.84938">
        <ele>1292.1427400276</ele>
        <time>2015-08-18T07:36:16Z</time>
      </trkpt>
      <trkpt lat="45.5354" lon="2.84942">
        <ele>1292.1427400276</ele>
        <time>2015-08-18T07:36:30Z</time>
      </trkpt>
      <trkpt lat="45.53551" lon="2.84951">
        <ele>1295.0216527171</ele>
        <time>2015-08-18T07:36:46Z</time>
      </trkpt>
      <trkpt lat="45.53551" lon="2.84951">
        <ele>1295.0216527171</ele>
        <time>2015-08-18T07:36:55Z</time>
      </trkpt>
      <trkpt lat="45.53544" lon="2.84951">
        <ele>1295.0216527171</ele>
        <time>2015-08-18T07:37:03Z</time>
      </trkpt>
      <trkpt lat="45.53538" lon="2.84946">
        <ele>1297.9187654627</ele>
        <time>2015-08-18T07:37:16Z</time>
      </trkpt>
      <trkpt lat="45.5353" lon="2.84945">
        <ele>1297.9187654627</ele>
        <time>2015-08-18T07:37:24Z</time>
      </trkpt>
      <trkpt lat="45.53529" lon="2.84945">
        <ele>1297.9187654627</ele>
        <time>2015-08-18T07:37:26Z</time>
      </trkpt>
      <trkpt lat="45.53526" lon="2.84941">
        <ele>1300.7579971456</ele>
        <time>2015-08-18T07:37:46Z</time>
      </trkpt>
      <trkpt lat="45.53522" lon="2.84935">
        <ele>1300.7579971456</ele>
        <time>2015-08-18T07:37:46Z</time>
      </trkpt>
      <trkpt lat="45.53521" lon="2.84935">
        <ele>1300.7579971456</ele>
        <time>2015-08-18T07:37:48Z</time>
      </trkpt>
      <trkpt lat="45.53501" lon="2.84897">
        <ele>1304.3197004767</ele>
        <time>2015-08-18T07:38:46Z</time>
      </trkpt>
      <trkpt lat="45.53484" lon="2.84889">
        <ele>1307.854280011</ele>
        <time>2015-08-18T07:39:06Z</time>
      </trkpt>
      <trkpt lat="45.5348" lon="2.84886">
        <ele>1307.854280011</ele>
        <time>2015-08-18T07:39:22Z</time>
      </trkpt>
      <trkpt lat="45.53473" lon="2.84869">
        <ele>1311.7631224811</ele>
        <time>2015-08-18T07:39:45Z</time>
      </trkpt>
      <trkpt lat="45.53472" lon="2.84868">
        <ele>1311.7631224811</ele>
        <time>2015-08-18T07:39:46Z</time>
      </trkpt>
      <trkpt lat="45.53469" lon="2.8485">
        <ele>1315.6961724868</ele>
        <time>2015-08-18T07:40:26Z</time>
      </trkpt>
      <trkpt lat="45.53438" lon="2.84854">
        <ele>1320.0356653033</ele>
        <time>2015-08-18T07:41:33Z</time>
      </trkpt>
      <trkpt lat="45.53435" lon="2.84868">
        <ele>1324.2405855478</ele>
        <time>2015-08-18T07:41:58Z</time>
      </trkpt>
      <trkpt lat="45.53435" lon="2.84869">
        <ele>1324.2405855478</ele>
        <time>2015-08-18T07:41:59Z</time>
      </trkpt>
      <trkpt lat="45.53439" lon="2.84892">
        <ele>1328.2427350667</ele>
        <time>2015-08-18T07:42:28Z</time>
      </trkpt>
      <trkpt lat="45.53437" lon="2.84923">
        <ele>1332.0661349548</ele>
        <time>2015-08-18T07:43:00Z</time>
      </trkpt>
      <trkpt lat="45.53433" lon="2.8495">
        <ele>1335.70481762</ele>
        <time>2015-08-18T07:43:26Z</time>
      </trkpt>
      <trkpt lat="45.53428" lon="2.8497">
        <ele>1339.153898939</ele>
        <time>2015-08-18T07:44:00Z</time>
      </trkpt>
      <trkpt lat="45.53422" lon="2.84961">
        <ele>1339.153898939</ele>
        <time>2015-08-18T07:44:22Z</time>
      </trkpt>
      <trkpt lat="45.534" lon="2.84904">
        <ele>1343.8375257956</ele>
        <time>2015-08-18T07:45:24Z</time>
      </trkpt>
      <trkpt lat="45.53397" lon="2.84902">
        <ele>1343.8375257956</ele>
        <time>2015-08-18T07:45:28Z</time>
      </trkpt>
      <trkpt lat="45.53374" lon="2.84882">
        <ele>1349.0379884451</ele>
        <time>2015-08-18T07:46:22Z</time>
      </trkpt>
      <trkpt lat="45.53366" lon="2.84878">
        <ele>1349.0379884451</ele>
        <time>2015-08-18T07:46:26Z</time>
      </trkpt>
      <trkpt lat="45.5335" lon="2.84861">
        <ele>1354.2620880515</ele>
        <time>2015-08-18T07:46:58Z</time>
      </trkpt>
      <trkpt lat="45.53345" lon="2.8486">
        <ele>1354.2620880515</ele>
        <time>2015-08-18T07:47:06Z</time>
      </trkpt>
      <trkpt lat="45.53343" lon="2.84869">
        <ele>1359.7164899708</ele>
        <time>2015-08-18T07:47:51Z</time>
      </trkpt>
      <trkpt lat="45.53337" lon="2.84875">
        <ele>1359.7164899708</ele>
        <time>2015-08-18T07:48:09Z</time>
      </trkpt>
      <trkpt lat="45.53339" lon="2.84878">
        <ele>1364.9719433494</ele>
        <time>2015-08-18T07:48:22Z</time>
      </trkpt>
      <trkpt lat="45.53343" lon="2.8489">
        <ele>1370.0065390857</ele>
        <time>2015-08-18T07:48:28Z</time>
      </trkpt>
      <trkpt lat="45.53343" lon="2.84891">
        <ele>1370.0065390857</ele>
        <time>2015-08-18T07:48:38Z</time>
      </trkpt>
      <trkpt lat="45.53358" lon="2.84937">
        <ele>1376.416165253</ele>
        <time>2015-08-18T07:49:26Z</time>
      </trkpt>
      <trkpt lat="45.53365" lon="2.84941">
        <ele>1376.416165253</ele>
        <time>2015-08-18T07:49:41Z</time>
      </trkpt>
      <trkpt lat="45.53365" lon="2.84964">
        <ele>1383.5409994478</ele>
        <time>2015-08-18T07:50:23Z</time>
      </trkpt>
      <trkpt lat="45.53365" lon="2.84966">
        <ele>1383.5409994478</ele>
        <time>2015-08-18T07:50:32Z</time>
      </trkpt>
      <trkpt lat="45.53359" lon="2.84964">
        <ele>1383.5409994478</ele>
        <time>2015-08-18T07:51:08Z</time>
      </trkpt>
      <trkpt lat="45.53345" lon="2.84948">
        <ele>1391.7775346069</ele>
        <time>2015-08-18T07:51:23Z</time>
      </trkpt>
      <trkpt lat="45.53338" lon="2.84948">
        <ele>1391.7775346069</ele>
        <time>2015-08-18T07:51:28Z</time>
      </trkpt>
      <trkpt lat="45.53305" lon="2.84938">
        <ele>1400.7402717401</ele>
        <time>2015-08-18T07:52:17Z</time>
      </trkpt>
      <trkpt lat="45.53301" lon="2.84937">
        <ele>1400.7402717401</ele>
        <time>2015-08-18T07:52:25Z</time>
      </trkpt>
      <trkpt lat="45.533" lon="2.84937">
        <ele>1400.7402717401</ele>
        <time>2015-08-18T07:52:26Z</time>
      </trkpt>
      <trkpt lat="45.53279" lon="2.84942">
        <ele>1408.9167126425</ele>
        <time>2015-08-18T07:53:23Z</time>
      </trkpt>
      <trkpt lat="45.53257" lon="2.84953">
        <ele>1416.754000801</ele>
        <time>2015-08-18T07:53:31Z</time>
      </trkpt>
      <trkpt lat="45.53232" lon="2.84963">
        <ele>1423.7880513581</ele>
        <time>2015-08-18T07:54:24Z</time>
      </trkpt>
      <trkpt lat="45.5322" lon="2.8496">
        <ele>1430.7738297966</ele>
        <time>2015-08-18T07:54:28Z</time>
      </trkpt>
      <trkpt lat="45.53193" lon="2.84946">
        <ele>1437.7335356189</ele>
        <time>2015-08-18T07:55:21Z</time>
      </trkpt>
      <trkpt lat="45.53182" lon="2.84939">
        <ele>1444.010561143</ele>
        <time>2015-08-18T07:55:27Z</time>
      </trkpt>
      <trkpt lat="45.53148" lon="2.84929">
        <ele>1449.9647787675</ele>
        <time>2015-08-18T07:56:11Z</time>
      </trkpt>
      <trkpt lat="45.53139" lon="2.84931">
        <ele>1449.9647787675</ele>
        <time>2015-08-18T07:56:24Z</time>
      </trkpt>
      <trkpt lat="45.53138" lon="2.84931">
        <ele>1455.2821034353</ele>
        <time>2015-08-18T07:56:27Z</time>
      </trkpt>
      <trkpt lat="45.53124" lon="2.8494">
        <ele>1460.0628810653</ele>
        <time>2015-08-18T07:56:46Z</time>
      </trkpt>
      <trkpt lat="45.53087" lon="2.84938">
        <ele>1464.6036822078</ele>
        <time>2015-08-18T07:57:32Z</time>
      </trkpt>
      <trkpt lat="45.53071" lon="2.84937">
        <ele>1468.7333909548</ele>
        <time>2015-08-18T07:57:46Z</time>
      </trkpt>
      <trkpt lat="45.53061" lon="2.84936">
        <ele>1472.4534586882</ele>
        <time>2015-08-18T07:58:06Z</time>
      </trkpt>
      <trkpt lat="45.53045" lon="2.84934">
        <ele>1476.0116529825</ele>
        <time>2015-08-18T07:58:27Z</time>
      </trkpt>
      <trkpt lat="45.53044" lon="2.84934">
        <ele>1476.0116529825</ele>
        <time>2015-08-18T07:58:33Z</time>
      </trkpt>
      <trkpt lat="45.53038" lon="2.84942">
        <ele>1476.0116529825</ele>
        <time>2015-08-18T08:02:16Z</time>
      </trkpt>
      <trkpt lat="45.53033" lon="2.84945">
        <ele>1480.2291219168</ele>
        <time>2015-08-18T08:03:14Z</time>
      </trkpt>
      <trkpt lat="45.53026" lon="2.84937">
        <ele>1480.2291219168</ele>
        <time>2015-08-18T08:04:26Z</time>
      </trkpt>
      <trkpt lat="45.53028" lon="2.84945">
        <ele>1484.452589912</ele>
        <time>2015-08-18T08:05:33Z</time>
      </trkpt>
      <trkpt lat="45.53028" lon="2.84945">
        <ele>1484.452589912</ele>
        <time>2015-08-18T08:06:24Z</time>
      </trkpt>
      <trkpt lat="45.53021" lon="2.84943">
        <ele>1484.452589912</ele>
        <time>2015-08-18T08:07:04Z</time>
      </trkpt>
      <trkpt lat="45.53021" lon="2.84942">
        <ele>1484.452589912</ele>
        <time>2015-08-18T08:07:31Z</time>
      </trkpt>
      <trkpt lat="45.53017" lon="2.84944">
        <ele>1488.1202385095</ele>
        <time>2015-08-18T08:07:41Z</time>
      </trkpt>
      <trkpt lat="45.52998" lon="2.84958">
        <ele>1491.1600531479</ele>
        <time>2015-08-18T08:08:17Z</time>
      </trkpt>
      <trkpt lat="45.5297" lon="2.84967">
        <ele>1493.6225153822</ele>
        <time>2015-08-18T08:08:26Z</time>
      </trkpt>
      <trkpt lat="45.52969" lon="2.84968">
        <ele>1493.6225153822</ele>
        <time>2015-08-18T08:08:34Z</time>
      </trkpt>
      <trkpt lat="45.52963" lon="2.84969">
        <ele>1493.6225153822</ele>
        <time>2015-08-18T08:08:45Z</time>
      </trkpt>
      <trkpt lat="45.5294" lon="2.8497">
        <ele>1495.8876061088</ele>
        <time>2015-08-18T08:09:33Z</time>
      </trkpt>
      <trkpt lat="45.52907" lon="2.84971">
        <ele>1498.3512709808</ele>
        <time>2015-08-18T08:10:23Z</time>
      </trkpt>
      <trkpt lat="45.52897" lon="2.84971">
        <ele>1500.3854981264</ele>
        <time>2015-08-18T08:10:26Z</time>
      </trkpt>
      <trkpt lat="45.52892" lon="2.84972">
        <ele>1500.3854981264</ele>
        <time>2015-08-18T08:10:34Z</time>
      </trkpt>
      <trkpt lat="45.52892" lon="2.84971">
        <ele>1500.3854981264</ele>
        <time>2015-08-18T08:10:36Z</time>
      </trkpt>
      <trkpt lat="45.52885" lon="2.84975">
        <ele>1502.6202260486</ele>
        <time>2015-08-18T08:11:01Z</time>
      </trkpt>
      <trkpt lat="45.52879" lon="2.84975">
        <ele>1502.6202260486</ele>
        <time>2015-08-18T08:11:06Z</time>
      </trkpt>
      <trkpt lat="45.52876" lon="2.84977">
        <ele>1504.428027431</ele>
        <time>2015-08-18T08:11:16Z</time>
      </trkpt>
      <trkpt lat="45.52853" lon="2.84985">
        <ele>1506.1799119106</ele>
        <time>2015-08-18T08:11:42Z</time>
      </trkpt>
      <trkpt lat="45.52838" lon="2.84997">
        <ele>1507.7874296414</ele>
        <time>2015-08-18T08:12:07Z</time>
      </trkpt>
      <trkpt lat="45.52816" lon="2.85002">
        <ele>1509.5436804523</ele>
        <time>2015-08-18T08:12:37Z</time>
      </trkpt>
      <trkpt lat="45.52814" lon="2.85003">
        <ele>1509.5436804523</ele>
        <time>2015-08-18T08:12:41Z</time>
      </trkpt>
      <trkpt lat="45.52813" lon="2.85004">
        <ele>1509.5436804523</ele>
        <time>2015-08-18T08:12:49Z</time>
      </trkpt>
      <trkpt lat="45.52812" lon="2.85004">
        <ele>1509.5436804523</ele>
        <time>2015-08-18T08:12:51Z</time>
      </trkpt>
      <trkpt lat="45.52809" lon="2.85005">
        <ele>1509.5436804523</ele>
        <time>2015-08-18T08:13:00Z</time>
      </trkpt>
      <trkpt lat="45.52804" lon="2.85006">
        <ele>1511.5612256829</ele>
        <time>2015-08-18T08:13:11Z</time>
      </trkpt>
      <trkpt lat="45.52792" lon="2.85011">
        <ele>1513.4967892006</ele>
        <time>2015-08-18T08:13:36Z</time>
      </trkpt>
      <trkpt lat="45.52791" lon="2.85011">
        <ele>1513.4967892006</ele>
        <time>2015-08-18T08:14:34Z</time>
      </trkpt>
      <trkpt lat="45.52772" lon="2.84977">
        <ele>1515.0468474306</ele>
        <time>2015-08-18T08:14:36Z</time>
      </trkpt>
      <trkpt lat="45.52767" lon="2.84965">
        <ele>1517.0408074185</ele>
        <time>2015-08-18T08:14:59Z</time>
      </trkpt>
      <trkpt lat="45.52745" lon="2.84931">
        <ele>1519.2946236529</ele>
        <time>2015-08-18T08:15:36Z</time>
      </trkpt>
      <trkpt lat="45.52742" lon="2.84926">
        <ele>1519.2946236529</ele>
        <time>2015-08-18T08:15:50Z</time>
      </trkpt>
      <trkpt lat="45.5271" lon="2.84897">
        <ele>1521.2045533647</ele>
        <time>2015-08-18T08:16:35Z</time>
      </trkpt>
      <trkpt lat="45.52706" lon="2.84892">
        <ele>1521.2045533647</ele>
        <time>2015-08-18T08:16:36Z</time>
      </trkpt>
      <trkpt lat="45.52704" lon="2.84891">
        <ele>1521.2045533647</ele>
        <time>2015-08-18T08:16:52Z</time>
      </trkpt>
      <trkpt lat="45.52666" lon="2.84872">
        <ele>1523.4946281359</ele>
        <time>2015-08-18T08:17:37Z</time>
      </trkpt>
      <trkpt lat="45.52662" lon="2.84871">
        <ele>1523.4946281359</ele>
        <time>2015-08-18T08:17:48Z</time>
      </trkpt>
      <trkpt lat="45.52627" lon="2.84865">
        <ele>1526.9497598492</ele>
        <time>2015-08-18T08:18:36Z</time>
      </trkpt>
      <trkpt lat="45.52625" lon="2.84846">
        <ele>1530.4635160859</ele>
        <time>2015-08-18T08:19:02Z</time>
      </trkpt>
      <trkpt lat="45.52623" lon="2.84816">
        <ele>1534.2209771688</ele>
        <time>2015-08-18T08:19:49Z</time>
      </trkpt>
      <trkpt lat="45.52611" lon="2.84786">
        <ele>1538.3063192098</ele>
        <time>2015-08-18T08:20:36Z</time>
      </trkpt>
      <trkpt lat="45.52603" lon="2.84776">
        <ele>1542.1191270614</ele>
        <time>2015-08-18T08:20:56Z</time>
      </trkpt>
      <trkpt lat="45.52591" lon="2.84763">
        <ele>1545.6801767148</ele>
        <time>2015-08-18T08:21:28Z</time>
      </trkpt>
      <trkpt lat="45.52584" lon="2.84753">
        <ele>1548.8940005319</ele>
        <time>2015-08-18T08:21:37Z</time>
      </trkpt>
      <trkpt lat="45.52583" lon="2.8475">
        <ele>1548.8940005319</ele>
        <time>2015-08-18T08:21:44Z</time>
      </trkpt>
      <trkpt lat="45.52581" lon="2.84746">
        <ele>1548.8940005319</ele>
        <time>2015-08-18T08:21:46Z</time>
      </trkpt>
      <trkpt lat="45.52575" lon="2.84736">
        <ele>1551.7882838608</ele>
        <time>2015-08-18T08:22:03Z</time>
      </trkpt>
      <trkpt lat="45.52572" lon="2.84735">
        <ele>1551.7882838608</ele>
        <time>2015-08-18T08:22:16Z</time>
      </trkpt>
      <trkpt lat="45.52554" lon="2.84724">
        <ele>1554.4038629802</ele>
        <time>2015-08-18T08:22:38Z</time>
      </trkpt>
      <trkpt lat="45.52546" lon="2.84721">
        <ele>1554.4038629802</ele>
        <time>2015-08-18T08:23:07Z</time>
      </trkpt>
      <trkpt lat="45.52544" lon="2.84718">
        <ele>1556.6927647314</ele>
        <time>2015-08-18T08:23:37Z</time>
      </trkpt>
      <trkpt lat="45.52523" lon="2.84715">
        <ele>1558.4960405225</ele>
        <time>2015-08-18T08:24:00Z</time>
      </trkpt>
      <trkpt lat="45.52515" lon="2.84714">
        <ele>1558.4960405225</ele>
        <time>2015-08-18T08:24:21Z</time>
      </trkpt>
      <trkpt lat="45.52514" lon="2.84713">
        <ele>1559.7973546159</ele>
        <time>2015-08-18T08:25:03Z</time>
      </trkpt>
      <trkpt lat="45.52511" lon="2.84714">
        <ele>1559.7973546159</ele>
        <time>2015-08-18T08:25:06Z</time>
      </trkpt>
      <trkpt lat="45.52491" lon="2.84709">
        <ele>1560.7269568437</ele>
        <time>2015-08-18T08:25:37Z</time>
      </trkpt>
      <trkpt lat="45.52485" lon="2.8471">
        <ele>1560.7269568437</ele>
        <time>2015-08-18T08:25:46Z</time>
      </trkpt>
      <trkpt lat="45.5248" lon="2.8471">
        <ele>1561.3199560036</ele>
        <time>2015-08-18T08:25:55Z</time>
      </trkpt>
      <trkpt lat="45.5248" lon="2.8471">
        <ele>1561.3199560036</ele>
        <time>2015-08-18T08:26:11Z</time>
      </trkpt>
      <trkpt lat="45.52464" lon="2.84707">
        <ele>1561.8114264993</ele>
        <time>2015-08-18T08:26:37Z</time>
      </trkpt>
      <trkpt lat="45.52457" lon="2.84693">
        <ele>1562.0878254011</ele>
        <time>2015-08-18T08:26:43Z</time>
      </trkpt>
      <trkpt lat="45.52445" lon="2.84669">
        <ele>1562.1596602273</ele>
        <time>2015-08-18T08:27:20Z</time>
      </trkpt>
      <trkpt lat="45.52438" lon="2.84654">
        <ele>1562.0514532015</ele>
        <time>2015-08-18T08:27:38Z</time>
      </trkpt>
      <trkpt lat="45.52426" lon="2.84609">
        <ele>1562.0167990199</ele>
        <time>2015-08-18T08:27:41Z</time>
      </trkpt>
      <trkpt lat="45.52422" lon="2.84602">
        <ele>1562.0167990199</ele>
        <time>2015-08-18T08:27:46Z</time>
      </trkpt>
      <trkpt lat="45.52419" lon="2.84597">
        <ele>1561.8578937693</ele>
        <time>2015-08-18T08:27:55Z</time>
      </trkpt>
      <trkpt lat="45.52394" lon="2.8457">
        <ele>1561.5645126555</ele>
        <time>2015-08-18T08:28:39Z</time>
      </trkpt>
      <trkpt lat="45.52394" lon="2.84569">
        <ele>1561.5645126555</ele>
        <time>2015-08-18T08:28:45Z</time>
      </trkpt>
      <trkpt lat="45.52387" lon="2.84521">
        <ele>1562.1072774745</ele>
        <time>2015-08-18T08:29:39Z</time>
      </trkpt>
      <trkpt lat="45.52383" lon="2.84513">
        <ele>1562.1072774745</ele>
        <time>2015-08-18T08:30:21Z</time>
      </trkpt>
      <trkpt lat="45.5238" lon="2.84507">
        <ele>1563.1867768907</ele>
        <time>2015-08-18T08:30:51Z</time>
      </trkpt>
      <trkpt lat="45.52378" lon="2.84505">
        <ele>1563.1867768907</ele>
        <time>2015-08-18T08:30:56Z</time>
      </trkpt>
      <trkpt lat="45.52359" lon="2.84464">
        <ele>1564.5382471907</ele>
        <time>2015-08-18T08:31:38Z</time>
      </trkpt>
      <trkpt lat="45.52357" lon="2.84462">
        <ele>1564.5382471907</ele>
        <time>2015-08-18T08:31:43Z</time>
      </trkpt>
      <trkpt lat="45.52334" lon="2.84389">
        <ele>1566.7512098998</ele>
        <time>2015-08-18T08:32:47Z</time>
      </trkpt>
      <trkpt lat="45.5233" lon="2.84371">
        <ele>1569.0722130698</ele>
        <time>2015-08-18T08:33:02Z</time>
      </trkpt>
      <trkpt lat="45.52317" lon="2.84341">
        <ele>1571.7681681448</ele>
        <time>2015-08-18T08:33:42Z</time>
      </trkpt>
      <trkpt lat="45.52314" lon="2.84335">
        <ele>1571.7681681448</ele>
        <time>2015-08-18T08:33:49Z</time>
      </trkpt>
      <trkpt lat="45.52313" lon="2.84333">
        <ele>1571.7681681448</ele>
        <time>2015-08-18T08:33:51Z</time>
      </trkpt>
      <trkpt lat="45.5231" lon="2.84331">
        <ele>1574.3213177153</ele>
        <time>2015-08-18T08:33:56Z</time>
      </trkpt>
      <trkpt lat="45.52294" lon="2.84299">
        <ele>1577.3617968833</ele>
        <time>2015-08-18T08:34:46Z</time>
      </trkpt>
      <trkpt lat="45.52266" lon="2.8425">
        <ele>1580.9675094569</ele>
        <time>2015-08-18T08:35:41Z</time>
      </trkpt>
      <trkpt lat="45.52264" lon="2.84245">
        <ele>1580.9675094569</ele>
        <time>2015-08-18T08:35:46Z</time>
      </trkpt>
      <trkpt lat="45.52257" lon="2.84213">
        <ele>1584.9350752442</ele>
        <time>2015-08-18T08:36:20Z</time>
      </trkpt>
      <trkpt lat="45.52257" lon="2.84212">
        <ele>1584.9350752442</ele>
        <time>2015-08-18T08:36:41Z</time>
      </trkpt>
      <trkpt lat="45.52255" lon="2.84208">
        <ele>1584.9350752442</ele>
        <time>2015-08-18T08:37:01Z</time>
      </trkpt>
      <trkpt lat="45.52255" lon="2.84201">
        <ele>1588.9163741992</ele>
        <time>2015-08-18T08:37:07Z</time>
      </trkpt>
      <trkpt lat="45.52253" lon="2.84196">
        <ele>1588.9163741992</ele>
        <time>2015-08-18T08:37:11Z</time>
      </trkpt>
      <trkpt lat="45.52251" lon="2.84187">
        <ele>1592.5886999581</ele>
        <time>2015-08-18T08:37:26Z</time>
      </trkpt>
      <trkpt lat="45.5225" lon="2.84172">
        <ele>1596.0429198615</ele>
        <time>2015-08-18T08:37:41Z</time>
      </trkpt>
      <trkpt lat="45.52243" lon="2.84115">
        <ele>1601.4677855229</ele>
        <time>2015-08-18T08:39:43Z</time>
      </trkpt>
      <trkpt lat="45.52244" lon="2.84114">
        <ele>1601.4677855229</ele>
        <time>2015-08-18T08:39:46Z</time>
      </trkpt>
      <trkpt lat="45.52239" lon="2.84075">
        <ele>1606.4326445649</ele>
        <time>2015-08-18T08:40:41Z</time>
      </trkpt>
      <trkpt lat="45.52218" lon="2.83935">
        <ele>1611.9435738886</ele>
        <time>2015-08-18T08:42:05Z</time>
      </trkpt>
      <trkpt lat="45.52218" lon="2.83933">
        <ele>1611.9435738886</ele>
        <time>2015-08-18T08:42:06Z</time>
      </trkpt>
      <trkpt lat="45.52211" lon="2.83895">
        <ele>1617.5765638066</ele>
        <time>2015-08-18T08:42:41Z</time>
      </trkpt>
      <trkpt lat="45.52211" lon="2.83893">
        <ele>1617.5765638066</ele>
        <time>2015-08-18T08:42:46Z</time>
      </trkpt>
      <trkpt lat="45.5221" lon="2.83885">
        <ele>1617.5765638066</ele>
        <time>2015-08-18T08:42:53Z</time>
      </trkpt>
      <trkpt lat="45.52208" lon="2.8388">
        <ele>1623.471645604</ele>
        <time>2015-08-18T08:42:56Z</time>
      </trkpt>
      <trkpt lat="45.52207" lon="2.83875">
        <ele>1623.471645604</ele>
        <time>2015-08-18T08:43:01Z</time>
      </trkpt>
      <trkpt lat="45.5219" lon="2.83802">
        <ele>1629.8731695493</ele>
        <time>2015-08-18T08:44:07Z</time>
      </trkpt>
      <trkpt lat="45.52188" lon="2.8373">
        <ele>1637.0061959887</ele>
        <time>2015-08-18T08:45:06Z</time>
      </trkpt>
      <trkpt lat="45.52187" lon="2.83714">
        <ele>1643.7370750063</ele>
        <time>2015-08-18T08:45:21Z</time>
      </trkpt>
      <trkpt lat="45.52189" lon="2.83694">
        <ele>1650.0975325343</ele>
        <time>2015-08-18T08:45:42Z</time>
      </trkpt>
      <trkpt lat="45.52188" lon="2.83691">
        <ele>1650.0975325343</ele>
        <time>2015-08-18T08:45:46Z</time>
      </trkpt>
      <trkpt lat="45.52191" lon="2.83655">
        <ele>1655.9740532241</ele>
        <time>2015-08-18T08:46:44Z</time>
      </trkpt>
      <trkpt lat="45.52192" lon="2.83649">
        <ele>1655.9740532241</ele>
        <time>2015-08-18T08:46:51Z</time>
      </trkpt>
      <trkpt lat="45.52192" lon="2.83618">
        <ele>1663.3814386601</ele>
        <time>2015-08-18T08:47:44Z</time>
      </trkpt>
      <trkpt lat="45.52166" lon="2.83598">
        <ele>1670.6660822377</ele>
        <time>2015-08-18T08:48:46Z</time>
      </trkpt>
      <trkpt lat="45.52161" lon="2.83596">
        <ele>1670.6660822377</ele>
        <time>2015-08-18T08:49:18Z</time>
      </trkpt>
      <trkpt lat="45.52154" lon="2.83581">
        <ele>1678.0257566428</ele>
        <time>2015-08-18T08:49:52Z</time>
      </trkpt>
      <trkpt lat="45.52152" lon="2.83548">
        <ele>1685.2258206853</ele>
        <time>2015-08-18T08:50:49Z</time>
      </trkpt>
      <trkpt lat="45.52151" lon="2.83547">
        <ele>1685.2258206853</ele>
        <time>2015-08-18T08:51:31Z</time>
      </trkpt>
      <trkpt lat="45.52151" lon="2.83543">
        <ele>1685.2258206853</ele>
        <time>2015-08-18T08:51:36Z</time>
      </trkpt>
      <trkpt lat="45.52151" lon="2.83538">
        <ele>1685.2258206853</ele>
        <time>2015-08-18T08:51:41Z</time>
      </trkpt>
      <trkpt lat="45.5215" lon="2.83534">
        <ele>1692.0928175929</ele>
        <time>2015-08-18T08:51:46Z</time>
      </trkpt>
      <trkpt lat="45.52151" lon="2.83534">
        <ele>1692.0928175929</ele>
        <time>2015-08-18T08:51:51Z</time>
      </trkpt>
      <trkpt lat="45.52151" lon="2.83519">
        <ele>1698.1646147822</ele>
        <time>2015-08-18T08:53:47Z</time>
      </trkpt>
      <trkpt lat="45.52148" lon="2.8347">
        <ele>1704.788120198</ele>
        <time>2015-08-18T08:54:46Z</time>
      </trkpt>
      <trkpt lat="45.52155" lon="2.8345">
        <ele>1711.0483828316</ele>
        <time>2015-08-18T08:54:51Z</time>
      </trkpt>
      <trkpt lat="45.52159" lon="2.83445">
        <ele>1711.0483828316</ele>
        <time>2015-08-18T08:54:56Z</time>
      </trkpt>
      <trkpt lat="45.52168" lon="2.83424">
        <ele>1716.5601427072</ele>
        <time>2015-08-18T08:55:35Z</time>
      </trkpt>
      <trkpt lat="45.5217" lon="2.8342">
        <ele>1716.5601427072</ele>
        <time>2015-08-18T08:55:46Z</time>
      </trkpt>
      <trkpt lat="45.52177" lon="2.8338">
        <ele>1722.0929131908</ele>
        <time>2015-08-18T08:56:54Z</time>
      </trkpt>
      <trkpt lat="45.52177" lon="2.83371">
        <ele>1722.0929131908</ele>
        <time>2015-08-18T08:57:18Z</time>
      </trkpt>
      <trkpt lat="45.52178" lon="2.83368">
        <ele>1722.0929131908</ele>
        <time>2015-08-18T08:57:32Z</time>
      </trkpt>
      <trkpt lat="45.52179" lon="2.83363">
        <ele>1727.2070326197</ele>
        <time>2015-08-18T08:57:46Z</time>
      </trkpt>
      <trkpt lat="45.52179" lon="2.83363">
        <ele>1727.2070326197</ele>
        <time>2015-08-18T08:58:08Z</time>
      </trkpt>
      <trkpt lat="45.52179" lon="2.83349">
        <ele>1731.7127731177</ele>
        <time>2015-08-18T08:58:45Z</time>
      </trkpt>
      <trkpt lat="45.52178" lon="2.83331">
        <ele>1735.7966133996</ele>
        <time>2015-08-18T08:58:57Z</time>
      </trkpt>
      <trkpt lat="45.52178" lon="2.8333">
        <ele>1735.7966133996</ele>
        <time>2015-08-18T08:59:08Z</time>
      </trkpt>
      <trkpt lat="45.52177" lon="2.83309">
        <ele>1739.6327877618</ele>
        <time>2015-08-18T08:59:35Z</time>
      </trkpt>
      <trkpt lat="45.52177" lon="2.83308">
        <ele>1739.6327877618</ele>
        <time>2015-08-18T08:59:36Z</time>
      </trkpt>
      <trkpt lat="45.52176" lon="2.83305">
        <ele>1739.6327877618</ele>
        <time>2015-08-18T08:59:48Z</time>
      </trkpt>
      <trkpt lat="45.52178" lon="2.83301">
        <ele>1739.6327877618</ele>
        <time>2015-08-18T08:59:53Z</time>
      </trkpt>
      <trkpt lat="45.52184" lon="2.83265">
        <ele>1743.5710250311</ele>
        <time>2015-08-18T09:00:31Z</time>
      </trkpt>
      <trkpt lat="45.52185" lon="2.83251">
        <ele>1747.2435787666</ele>
        <time>2015-08-18T09:00:51Z</time>
      </trkpt>
      <trkpt lat="45.52192" lon="2.8325">
        <ele>1747.2435787666</ele>
        <time>2015-08-18T09:00:58Z</time>
      </trkpt>
      <trkpt lat="45.52193" lon="2.83248">
        <ele>1747.2435787666</ele>
        <time>2015-08-18T09:01:02Z</time>
      </trkpt>
      <trkpt lat="45.52193" lon="2.83242">
        <ele>1751.1177026349</ele>
        <time>2015-08-18T09:01:06Z</time>
      </trkpt>
      <trkpt lat="45.52191" lon="2.83219">
        <ele>1754.6460027943</ele>
        <time>2015-08-18T09:01:32Z</time>
      </trkpt>
      <trkpt lat="45.52191" lon="2.83209">
        <ele>1754.6460027943</ele>
        <time>2015-08-18T09:01:56Z</time>
      </trkpt>
      <trkpt lat="45.52198" lon="2.83183">
        <ele>1757.7403688107</ele>
        <time>2015-08-18T09:02:27Z</time>
      </trkpt>
      <trkpt lat="45.52206" lon="2.83172">
        <ele>1760.2340722433</ele>
        <time>2015-08-18T09:02:41Z</time>
      </trkpt>
      <trkpt lat="45.52209" lon="2.83164">
        <ele>1760.2340722433</ele>
        <time>2015-08-18T09:07:31Z</time>
      </trkpt>
      <trkpt lat="45.5221" lon="2.83163">
        <ele>1760.2340722433</ele>
        <time>2015-08-18T09:07:40Z</time>
      </trkpt>
      <trkpt lat="45.52214" lon="2.83152">
        <ele>1762.2914986776</ele>
        <time>2015-08-18T09:07:56Z</time>
      </trkpt>
      <trkpt lat="45.52216" lon="2.83145">
        <ele>1762.2914986776</ele>
        <time>2015-08-18T09:08:21Z</time>
      </trkpt>
      <trkpt lat="45.52218" lon="2.8314">
        <ele>1762.2914986776</ele>
        <time>2015-08-18T09:08:28Z</time>
      </trkpt>
      <trkpt lat="45.52231" lon="2.83121">
        <ele>1763.5330813263</ele>
        <time>2015-08-18T09:08:58Z</time>
      </trkpt>
      <trkpt lat="45.52258" lon="2.83084">
        <ele>1764.3588855496</ele>
        <time>2015-08-18T09:09:59Z</time>
      </trkpt>
      <trkpt lat="45.52259" lon="2.8308">
        <ele>1764.3588855496</ele>
        <time>2015-08-18T09:10:01Z</time>
      </trkpt>
      <trkpt lat="45.52262" lon="2.83077">
        <ele>1764.3588855496</ele>
        <time>2015-08-18T09:10:06Z</time>
      </trkpt>
      <trkpt lat="45.52264" lon="2.83073">
        <ele>1764.6796496588</ele>
        <time>2015-08-18T09:10:11Z</time>
      </trkpt>
      <trkpt lat="45.52264" lon="2.83071">
        <ele>1764.6796496588</ele>
        <time>2015-08-18T09:10:16Z</time>
      </trkpt>
      <trkpt lat="45.52265" lon="2.83068">
        <ele>1764.6796496588</ele>
        <time>2015-08-18T09:10:21Z</time>
      </trkpt>
      <trkpt lat="45.52267" lon="2.83065">
        <ele>1764.6796496588</ele>
        <time>2015-08-18T09:10:34Z</time>
      </trkpt>
      <trkpt lat="45.52276" lon="2.83038">
        <ele>1764.7743816016</ele>
        <time>2015-08-18T09:11:01Z</time>
      </trkpt>
      <trkpt lat="45.52294" lon="2.82995">
        <ele>1765.1327896489</ele>
        <time>2015-08-18T09:12:01Z</time>
      </trkpt>
      <trkpt lat="45.52312" lon="2.82967">
        <ele>1765.2855081343</ele>
        <time>2015-08-18T09:13:01Z</time>
      </trkpt>
      <trkpt lat="45.52312" lon="2.82948">
        <ele>1765.8789822515</ele>
        <time>2015-08-18T09:13:06Z</time>
      </trkpt>
      <trkpt lat="45.52309" lon="2.82941">
        <ele>1765.8789822515</ele>
        <time>2015-08-18T09:13:13Z</time>
      </trkpt>
      <trkpt lat="45.5231" lon="2.8293">
        <ele>1766.5020480583</ele>
        <time>2015-08-18T09:14:06Z</time>
      </trkpt>
      <trkpt lat="45.52311" lon="2.82925">
        <ele>1766.5020480583</ele>
        <time>2015-08-18T09:14:36Z</time>
      </trkpt>
      <trkpt lat="45.52312" lon="2.82922">
        <ele>1766.5020480583</ele>
        <time>2015-08-18T09:14:41Z</time>
      </trkpt>
      <trkpt lat="45.52313" lon="2.82918">
        <ele>1767.609377113</ele>
        <time>2015-08-18T09:14:46Z</time>
      </trkpt>
      <trkpt lat="45.52316" lon="2.82916">
        <ele>1767.609377113</ele>
        <time>2015-08-18T09:14:51Z</time>
      </trkpt>
      <trkpt lat="45.52317" lon="2.82917">
        <ele>1767.609377113</ele>
        <time>2015-08-18T09:14:56Z</time>
      </trkpt>
      <trkpt lat="45.5233" lon="2.82896">
        <ele>1769.1307552073</ele>
        <time>2015-08-18T09:15:26Z</time>
      </trkpt>
      <trkpt lat="45.52331" lon="2.8289">
        <ele>1769.1307552073</ele>
        <time>2015-08-18T09:15:37Z</time>
      </trkpt>
      <trkpt lat="45.52327" lon="2.8285">
        <ele>1770.4233550729</ele>
        <time>2015-08-18T09:16:26Z</time>
      </trkpt>
      <trkpt lat="45.52326" lon="2.82844">
        <ele>1770.4233550729</ele>
        <time>2015-08-18T09:16:26Z</time>
      </trkpt>
      <trkpt lat="45.52329" lon="2.8284">
        <ele>1770.4233550729</ele>
        <time>2015-08-18T09:16:31Z</time>
      </trkpt>
      <trkpt lat="45.52333" lon="2.82819">
        <ele>1772.5781382732</ele>
        <time>2015-08-18T09:17:32Z</time>
      </trkpt>
      <trkpt lat="45.52327" lon="2.82816">
        <ele>1772.5781382732</ele>
        <time>2015-08-18T09:17:49Z</time>
      </trkpt>
      <trkpt lat="45.52322" lon="2.82818">
        <ele>1774.5281224588</ele>
        <time>2015-08-18T09:17:58Z</time>
      </trkpt>
      <trkpt lat="45.52308" lon="2.82804">
        <ele>1776.610915</ele>
        <time>2015-08-18T09:18:27Z</time>
      </trkpt>
      <trkpt lat="45.52306" lon="2.82802">
        <ele>1776.610915</ele>
        <time>2015-08-18T09:18:31Z</time>
      </trkpt>
      <trkpt lat="45.52303" lon="2.82777">
        <ele>1779.1243499101</ele>
        <time>2015-08-18T09:19:26Z</time>
      </trkpt>
      <trkpt lat="45.52305" lon="2.82772">
        <ele>1779.1243499101</ele>
        <time>2015-08-18T09:19:31Z</time>
      </trkpt>
      <trkpt lat="45.52306" lon="2.82765">
        <ele>1779.1243499101</ele>
        <time>2015-08-18T09:20:21Z</time>
      </trkpt>
      <trkpt lat="45.52305" lon="2.82757">
        <ele>1783.8129234713</ele>
        <time>2015-08-18T09:22:41Z</time>
      </trkpt>
      <trkpt lat="45.52305" lon="2.82757">
        <ele>1783.8129234713</ele>
        <time>2015-08-18T09:22:46Z</time>
      </trkpt>
      <trkpt lat="45.52305" lon="2.8276">
        <ele>1783.8129234713</ele>
        <time>2015-08-18T09:22:51Z</time>
      </trkpt>
      <trkpt lat="45.52306" lon="2.8276">
        <ele>1783.8129234713</ele>
        <time>2015-08-18T09:23:16Z</time>
      </trkpt>
      <trkpt lat="45.52305" lon="2.82755">
        <ele>1783.8129234713</ele>
        <time>2015-08-18T09:23:17Z</time>
      </trkpt>
      <trkpt lat="45.52301" lon="2.82739">
        <ele>1787.9777790691</ele>
        <time>2015-08-18T09:23:28Z</time>
      </trkpt>
      <trkpt lat="45.523" lon="2.82732">
        <ele>1787.9777790691</ele>
        <time>2015-08-18T09:23:37Z</time>
      </trkpt>
      <trkpt lat="45.52296" lon="2.82719">
        <ele>1791.5839205968</ele>
        <time>2015-08-18T09:23:50Z</time>
      </trkpt>
      <trkpt lat="45.52292" lon="2.82707">
        <ele>1791.5839205968</ele>
        <time>2015-08-18T09:23:59Z</time>
      </trkpt>
      <trkpt lat="45.52294" lon="2.82674">
        <ele>1794.7588595557</ele>
        <time>2015-08-18T09:24:24Z</time>
      </trkpt>
      <trkpt lat="45.52301" lon="2.82657">
        <ele>1797.4488760094</ele>
        <time>2015-08-18T09:24:37Z</time>
      </trkpt>
      <trkpt lat="45.52303" lon="2.8262">
        <ele>1799.6054231176</ele>
        <time>2015-08-18T09:24:51Z</time>
      </trkpt>
      <trkpt lat="45.523" lon="2.82581">
        <ele>1801.4154643709</ele>
        <time>2015-08-18T09:25:13Z</time>
      </trkpt>
      <trkpt lat="45.52305" lon="2.82555">
        <ele>1802.9089592942</ele>
        <time>2015-08-18T09:25:31Z</time>
      </trkpt>
      <trkpt lat="45.52304" lon="2.82548">
        <ele>1802.9089592942</ele>
        <time>2015-08-18T09:25:36Z</time>
      </trkpt>
      <trkpt lat="45.52299" lon="2.82522">
        <ele>1804.3594101364</ele>
        <time>2015-08-18T09:26:01Z</time>
      </trkpt>
      <trkpt lat="45.52298" lon="2.82488">
        <ele>1805.6743437452</ele>
        <time>2015-08-18T09:26:29Z</time>
      </trkpt>
      <trkpt lat="45.52298" lon="2.82488">
        <ele>1805.6743437452</ele>
        <time>2015-08-18T09:26:38Z</time>
      </trkpt>
      <trkpt lat="45.52314" lon="2.82482">
        <ele>1806.6097939935</ele>
        <time>2015-08-18T09:26:57Z</time>
      </trkpt>
      <trkpt lat="45.52336" lon="2.82476">
        <ele>1807.2144414261</ele>
        <time>2015-08-18T09:27:27Z</time>
      </trkpt>
      <trkpt lat="45.5236" lon="2.82448">
        <ele>1807.5341599134</ele>
        <time>2015-08-18T09:27:50Z</time>
      </trkpt>
      <trkpt lat="45.52362" lon="2.82447">
        <ele>1807.5341599134</ele>
        <time>2015-08-18T09:27:51Z</time>
      </trkpt>
      <trkpt lat="45.52391" lon="2.82415">
        <ele>1807.5832626026</ele>
        <time>2015-08-18T09:28:31Z</time>
      </trkpt>
      <trkpt lat="45.52411" lon="2.82394">
        <ele>1807.5629366213</ele>
        <time>2015-08-18T09:28:56Z</time>
      </trkpt>
      <trkpt lat="45.52431" lon="2.82374">
        <ele>1807.5298957727</ele>
        <time>2015-08-18T09:29:21Z</time>
      </trkpt>
      <trkpt lat="45.52437" lon="2.82364">
        <ele>1807.4644683819</ele>
        <time>2015-08-18T09:29:31Z</time>
      </trkpt>
      <trkpt lat="45.52439" lon="2.82362">
        <ele>1807.4644683819</ele>
        <time>2015-08-18T09:29:35Z</time>
      </trkpt>
      <trkpt lat="45.52441" lon="2.82358">
        <ele>1807.4644683819</ele>
        <time>2015-08-18T09:29:36Z</time>
      </trkpt>
      <trkpt lat="45.52443" lon="2.82353">
        <ele>1807.3627207292</ele>
        <time>2015-08-18T09:29:52Z</time>
      </trkpt>
      <trkpt lat="45.52447" lon="2.82334">
        <ele>1807.3361813834</ele>
        <time>2015-08-18T09:29:57Z</time>
      </trkpt>
      <trkpt lat="45.52456" lon="2.82307">
        <ele>1807.5309841661</ele>
        <time>2015-08-18T09:30:27Z</time>
      </trkpt>
      <trkpt lat="45.52467" lon="2.82298">
        <ele>1807.7213995822</ele>
        <time>2015-08-18T09:30:33Z</time>
      </trkpt>
      <trkpt lat="45.52467" lon="2.82297">
        <ele>1807.7213995822</ele>
        <time>2015-08-18T09:30:43Z</time>
      </trkpt>
      <trkpt lat="45.52494" lon="2.82264">
        <ele>1808.9085947758</ele>
        <time>2015-08-18T09:31:29Z</time>
      </trkpt>
      <trkpt lat="45.52495" lon="2.82264">
        <ele>1808.9085947758</ele>
        <time>2015-08-18T09:31:31Z</time>
      </trkpt>
      <trkpt lat="45.52494" lon="2.82269">
        <ele>1808.9085947758</ele>
        <time>2015-08-18T09:31:41Z</time>
      </trkpt>
      <trkpt lat="45.52493" lon="2.8227">
        <ele>1808.9085947758</ele>
        <time>2015-08-18T09:31:49Z</time>
      </trkpt>
      <trkpt lat="45.52476" lon="2.82303">
        <ele>1810.561642866</ele>
        <time>2015-08-18T09:33:36Z</time>
      </trkpt>
      <trkpt lat="45.52461" lon="2.82361">
        <ele>1813.0517555364</ele>
        <time>2015-08-18T09:34:28Z</time>
      </trkpt>
      <trkpt lat="45.52461" lon="2.82366">
        <ele>1813.0517555364</ele>
        <time>2015-08-18T09:34:31Z</time>
      </trkpt>
      <trkpt lat="45.52461" lon="2.82371">
        <ele>1813.0517555364</ele>
        <time>2015-08-18T09:34:39Z</time>
      </trkpt>
      <trkpt lat="45.52464" lon="2.82378">
        <ele>1815.2936139557</ele>
        <time>2015-08-18T09:34:41Z</time>
      </trkpt>
      <trkpt lat="45.52468" lon="2.82384">
        <ele>1815.2936139557</ele>
        <time>2015-08-18T09:34:46Z</time>
      </trkpt>
      <trkpt lat="45.52469" lon="2.8239">
        <ele>1817.3629572868</ele>
        <time>2015-08-18T09:34:58Z</time>
      </trkpt>
      <trkpt lat="45.52453" lon="2.8245">
        <ele>1819.5608386763</ele>
        <time>2015-08-18T09:35:33Z</time>
      </trkpt>
      <trkpt lat="45.52455" lon="2.8251">
        <ele>1822.3818341146</ele>
        <time>2015-08-18T09:36:16Z</time>
      </trkpt>
      <trkpt lat="45.52453" lon="2.82521">
        <ele>1822.3818341146</ele>
        <time>2015-08-18T09:36:29Z</time>
      </trkpt>
      <trkpt lat="45.52453" lon="2.82526">
        <ele>1825.0285203771</ele>
        <time>2015-08-18T09:36:32Z</time>
      </trkpt>
      <trkpt lat="45.52453" lon="2.82531">
        <ele>1825.0285203771</ele>
        <time>2015-08-18T09:36:44Z</time>
      </trkpt>
      <trkpt lat="45.52451" lon="2.82566">
        <ele>1827.6126602081</ele>
        <time>2015-08-18T09:37:02Z</time>
      </trkpt>
      <trkpt lat="45.52458" lon="2.82582">
        <ele>1830.1369825232</ele>
        <time>2015-08-18T09:37:16Z</time>
      </trkpt>
      <trkpt lat="45.5246" lon="2.82588">
        <ele>1830.1369825232</ele>
        <time>2015-08-18T09:37:26Z</time>
      </trkpt>
      <trkpt lat="45.5246" lon="2.82593">
        <ele>1830.1369825232</ele>
        <time>2015-08-18T09:37:26Z</time>
      </trkpt>
      <trkpt lat="45.52461" lon="2.82599">
        <ele>1832.5464326351</ele>
        <time>2015-08-18T09:37:31Z</time>
      </trkpt>
      <trkpt lat="45.52465" lon="2.82613">
        <ele>1834.8334625636</ele>
        <time>2015-08-18T09:37:44Z</time>
      </trkpt>
      <trkpt lat="45.52466" lon="2.82621">
        <ele>1834.8334625636</ele>
        <time>2015-08-18T09:37:50Z</time>
      </trkpt>
      <trkpt lat="45.52473" lon="2.82663">
        <ele>1837.2507413339</ele>
        <time>2015-08-18T09:38:29Z</time>
      </trkpt>
      <trkpt lat="45.52479" lon="2.82635">
        <ele>1839.8013641559</ele>
        <time>2015-08-18T09:39:33Z</time>
      </trkpt>
      <trkpt lat="45.52479" lon="2.82635">
        <ele>1839.8013641559</ele>
        <time>2015-08-18T09:39:40Z</time>
      </trkpt>
      <trkpt lat="45.52477" lon="2.82629">
        <ele>1839.8013641559</ele>
        <time>2015-08-18T09:40:04Z</time>
      </trkpt>
      <trkpt lat="45.52477" lon="2.82629">
        <ele>1839.8013641559</ele>
        <time>2015-08-18T09:40:14Z</time>
      </trkpt>
      <trkpt lat="45.52467" lon="2.8261">
        <ele>1842.5454106989</ele>
        <time>2015-08-18T09:40:29Z</time>
      </trkpt>
      <trkpt lat="45.52467" lon="2.8261">
        <ele>1842.5454106989</ele>
        <time>2015-08-18T09:40:31Z</time>
      </trkpt>
      <trkpt lat="45.52466" lon="2.82604">
        <ele>1842.5454106989</ele>
        <time>2015-08-18T09:40:49Z</time>
      </trkpt>
      <trkpt lat="45.52465" lon="2.82603">
        <ele>1842.5454106989</ele>
        <time>2015-08-18T09:40:51Z</time>
      </trkpt>
      <trkpt lat="45.52462" lon="2.82601">
        <ele>1842.5454106989</ele>
        <time>2015-08-18T09:40:56Z</time>
      </trkpt>
      <trkpt lat="45.52453" lon="2.82566">
        <ele>1845.0047452617</ele>
        <time>2015-08-18T09:41:35Z</time>
      </trkpt>
      <trkpt lat="45.52454" lon="2.82525">
        <ele>1846.8524046005</ele>
        <time>2015-08-18T09:42:01Z</time>
      </trkpt>
      <trkpt lat="45.52457" lon="2.82479">
        <ele>1848.0465279956</ele>
        <time>2015-08-18T09:42:35Z</time>
      </trkpt>
      <trkpt lat="45.52462" lon="2.82429">
        <ele>1849.0401125937</ele>
        <time>2015-08-18T09:43:17Z</time>
      </trkpt>
      <trkpt lat="45.5247" lon="2.82385">
        <ele>1849.0716995487</ele>
        <time>2015-08-18T09:43:31Z</time>
      </trkpt>
      <trkpt lat="45.52463" lon="2.82352">
        <ele>1848.8651298763</ele>
        <time>2015-08-18T09:44:28Z</time>
      </trkpt>
      <trkpt lat="45.52492" lon="2.82273">
        <ele>1847.8523379677</ele>
        <time>2015-08-18T09:45:28Z</time>
      </trkpt>
      <trkpt lat="45.525" lon="2.82243">
        <ele>1846.2297457763</ele>
        <time>2015-08-18T09:47:29Z</time>
      </trkpt>
      <trkpt lat="45.52502" lon="2.82241">
        <ele>1846.2297457763</ele>
        <time>2015-08-18T09:47:31Z</time>
      </trkpt>
      <trkpt lat="45.52522" lon="2.82185">
        <ele>1844.8583030888</ele>
        <time>2015-08-18T09:48:15Z</time>
      </trkpt>
      <trkpt lat="45.52526" lon="2.82179">
        <ele>1844.8583030888</ele>
        <time>2015-08-18T09:48:31Z</time>
      </trkpt>
      <trkpt lat="45.52545" lon="2.82112">
        <ele>1843.4684934299</ele>
        <time>2015-08-18T09:49:20Z</time>
      </trkpt>
      <trkpt lat="45.52552" lon="2.821">
        <ele>1842.0843492797</ele>
        <time>2015-08-18T09:49:30Z</time>
      </trkpt>
      <trkpt lat="45.52553" lon="2.821">
        <ele>1842.0843492797</ele>
        <time>2015-08-18T09:49:31Z</time>
      </trkpt>
      <trkpt lat="45.52555" lon="2.82093">
        <ele>1842.0843492797</ele>
        <time>2015-08-18T09:49:36Z</time>
      </trkpt>
      <trkpt lat="45.52558" lon="2.82087">
        <ele>1840.6415259721</ele>
        <time>2015-08-18T09:49:42Z</time>
      </trkpt>
      <trkpt lat="45.52562" lon="2.82076">
        <ele>1839.2101261818</ele>
        <time>2015-08-18T09:49:54Z</time>
      </trkpt>
      <trkpt lat="45.52581" lon="2.82055">
        <ele>1837.6099240683</ele>
        <time>2015-08-18T09:50:09Z</time>
      </trkpt>
      <trkpt lat="45.52583" lon="2.82053">
        <ele>1837.6099240683</ele>
        <time>2015-08-18T09:50:11Z</time>
      </trkpt>
      <trkpt lat="45.52593" lon="2.82045">
        <ele>1835.7462914278</ele>
        <time>2015-08-18T09:50:31Z</time>
      </trkpt>
      <trkpt lat="45.52617" lon="2.8201">
        <ele>1833.4312287785</ele>
        <time>2015-08-18T09:51:08Z</time>
      </trkpt>
      <trkpt lat="45.52634" lon="2.81987">
        <ele>1830.8518940863</ele>
        <time>2015-08-18T09:51:22Z</time>
      </trkpt>
      <trkpt lat="45.52641" lon="2.81975">
        <ele>1828.2542827003</ele>
        <time>2015-08-18T09:51:31Z</time>
      </trkpt>
      <trkpt lat="45.52651" lon="2.8195">
        <ele>1825.3905782258</ele>
        <time>2015-08-18T09:51:51Z</time>
      </trkpt>
      <trkpt lat="45.52654" lon="2.81949">
        <ele>1825.3905782258</ele>
        <time>2015-08-18T09:52:00Z</time>
      </trkpt>
      <trkpt lat="45.52662" lon="2.81942">
        <ele>1822.3775420357</ele>
        <time>2015-08-18T09:52:02Z</time>
      </trkpt>
      <trkpt lat="45.52667" lon="2.81935">
        <ele>1822.3775420357</ele>
        <time>2015-08-18T09:52:11Z</time>
      </trkpt>
      <trkpt lat="45.5267" lon="2.81931">
        <ele>1819.3955791191</ele>
        <time>2015-08-18T09:52:12Z</time>
      </trkpt>
      <trkpt lat="45.52675" lon="2.81921">
        <ele>1816.4097328225</ele>
        <time>2015-08-18T09:52:23Z</time>
      </trkpt>
      <trkpt lat="45.52687" lon="2.81914">
        <ele>1813.1711801428</ele>
        <time>2015-08-18T09:52:30Z</time>
      </trkpt>
      <trkpt lat="45.52687" lon="2.81913">
        <ele>1813.1711801428</ele>
        <time>2015-08-18T09:52:31Z</time>
      </trkpt>
      <trkpt lat="45.52694" lon="2.81907">
        <ele>1813.1711801428</ele>
        <time>2015-08-18T09:52:40Z</time>
      </trkpt>
      <trkpt lat="45.52694" lon="2.81906">
        <ele>1809.7668405496</ele>
        <time>2015-08-18T09:52:43Z</time>
      </trkpt>
      <trkpt lat="45.52707" lon="2.81885">
        <ele>1805.9315465845</ele>
        <time>2015-08-18T09:52:58Z</time>
      </trkpt>
      <trkpt lat="45.52718" lon="2.8184">
        <ele>1801.2908067292</ele>
        <time>2015-08-18T09:53:21Z</time>
      </trkpt>
      <trkpt lat="45.52725" lon="2.81824">
        <ele>1796.7245192929</ele>
        <time>2015-08-18T09:53:38Z</time>
      </trkpt>
      <trkpt lat="45.52731" lon="2.81799">
        <ele>1792.1827322037</ele>
        <time>2015-08-18T09:53:48Z</time>
      </trkpt>
      <trkpt lat="45.52734" lon="2.81755">
        <ele>1787.5178652121</ele>
        <time>2015-08-18T09:54:20Z</time>
      </trkpt>
      <trkpt lat="45.5273" lon="2.81736">
        <ele>1783.3137177057</ele>
        <time>2015-08-18T09:54:30Z</time>
      </trkpt>
      <trkpt lat="45.5273" lon="2.81728">
        <ele>1783.3137177057</ele>
        <time>2015-08-18T09:54:31Z</time>
      </trkpt>
      <trkpt lat="45.52733" lon="2.81721">
        <ele>1779.5763288678</ele>
        <time>2015-08-18T09:54:42Z</time>
      </trkpt>
      <trkpt lat="45.52753" lon="2.81687">
        <ele>1776.3528430884</ele>
        <time>2015-08-18T09:55:08Z</time>
      </trkpt>
      <trkpt lat="45.52746" lon="2.8164">
        <ele>1773.9445259343</ele>
        <time>2015-08-18T09:55:31Z</time>
      </trkpt>
      <trkpt lat="45.52776" lon="2.81597">
        <ele>1772.3396361803</ele>
        <time>2015-08-18T09:56:31Z</time>
      </trkpt>
      <trkpt lat="45.52769" lon="2.81565">
        <ele>1772.2452450041</ele>
        <time>2015-08-18T09:57:31Z</time>
      </trkpt>
      <trkpt lat="45.52768" lon="2.8156">
        <ele>1772.2452450041</ele>
        <time>2015-08-18T09:57:39Z</time>
      </trkpt>
      <trkpt lat="45.52768" lon="2.81555">
        <ele>1772.2452450041</ele>
        <time>2015-08-18T09:57:47Z</time>
      </trkpt>
      <trkpt lat="45.52769" lon="2.81548">
        <ele>1772.697869695</ele>
        <time>2015-08-18T09:58:27Z</time>
      </trkpt>
      <trkpt lat="45.52763" lon="2.81526">
        <ele>1774.4890700395</ele>
        <time>2015-08-18T09:58:31Z</time>
      </trkpt>
      <trkpt lat="45.52762" lon="2.81523">
        <ele>1774.4890700395</ele>
        <time>2015-08-18T09:58:40Z</time>
      </trkpt>
      <trkpt lat="45.52759" lon="2.81501">
        <ele>1777.3394619614</ele>
        <time>2015-08-18T09:59:25Z</time>
      </trkpt>
      <trkpt lat="45.52754" lon="2.81492">
        <ele>1777.3394619614</ele>
        <time>2015-08-18T09:59:31Z</time>
      </trkpt>
      <trkpt lat="45.52753" lon="2.81488">
        <ele>1780.597893575</ele>
        <time>2015-08-18T09:59:43Z</time>
      </trkpt>
      <trkpt lat="45.52755" lon="2.81484">
        <ele>1780.597893575</ele>
        <time>2015-08-18T09:59:44Z</time>
      </trkpt>
      <trkpt lat="45.52779" lon="2.81497">
        <ele>1784.6973305839</ele>
        <time>2015-08-18T10:00:35Z</time>
      </trkpt>
      <trkpt lat="45.52778" lon="2.81495">
        <ele>1784.6973305839</ele>
        <time>2015-08-18T10:00:36Z</time>
      </trkpt>
      <trkpt lat="45.52777" lon="2.8145">
        <ele>1790.1229227133</ele>
        <time>2015-08-18T10:01:31Z</time>
      </trkpt>
      <trkpt lat="45.52778" lon="2.81452">
        <ele>1790.1229227133</ele>
        <time>2015-08-18T10:01:37Z</time>
      </trkpt>
      <trkpt lat="45.52789" lon="2.81465">
        <ele>1795.6198863907</ele>
        <time>2015-08-18T10:02:10Z</time>
      </trkpt>
      <trkpt lat="45.52801" lon="2.81456">
        <ele>1802.0717878024</ele>
        <time>2015-08-18T10:02:32Z</time>
      </trkpt>
      <trkpt lat="45.52807" lon="2.81446">
        <ele>1809.0985410641</ele>
        <time>2015-08-18T10:03:06Z</time>
      </trkpt>
      <trkpt lat="45.528" lon="2.81442">
        <ele>1809.0985410641</ele>
        <time>2015-08-18T10:03:23Z</time>
      </trkpt>
      <trkpt lat="45.52801" lon="2.81435">
        <ele>1816.3608957551</ele>
        <time>2015-08-18T10:03:31Z</time>
      </trkpt>
      <trkpt lat="45.52801" lon="2.81431">
        <ele>1816.3608957551</ele>
        <time>2015-08-18T10:03:31Z</time>
      </trkpt>
      <trkpt lat="45.528" lon="2.81427">
        <ele>1816.3608957551</ele>
        <time>2015-08-18T10:03:38Z</time>
      </trkpt>
      <trkpt lat="45.52816" lon="2.81402">
        <ele>1824.6825166969</ele>
        <time>2015-08-18T10:04:36Z</time>
      </trkpt>
      <trkpt lat="45.52825" lon="2.81401">
        <ele>1833.1809609684</ele>
        <time>2015-08-18T10:05:32Z</time>
      </trkpt>
      <trkpt lat="45.52825" lon="2.81395">
        <ele>1880.4</ele>
        <time>2015-08-18T10:08:14Z</time>
      </trkpt>
      <trkpt lat="45.52826" lon="2.81396">
        <ele>1880.4</ele>
        <time>2015-08-18T10:08:19Z</time>
      </trkpt>
      <trkpt lat="45.52826" lon="2.81399">
        <ele>1880.4</ele>
        <time>2015-08-18T10:09:00Z</time>
      </trkpt>
      <trkpt lat="45.52821" lon="2.81397">
        <ele>1881.0114076359</ele>
        <time>2015-08-18T10:09:10Z</time>
      </trkpt>
      <trkpt lat="45.52821" lon="2.81401">
        <ele>1881.0114076359</ele>
        <time>2015-08-18T10:09:14Z</time>
      </trkpt>
      <trkpt lat="45.52816" lon="2.81402">
        <ele>1881.0114076359</ele>
        <time>2015-08-18T10:09:20Z</time>
      </trkpt>
      <trkpt lat="45.52806" lon="2.81408">
        <ele>1890.1358062172</ele>
        <time>2015-08-18T10:09:47Z</time>
      </trkpt>
      <trkpt lat="45.52799" lon="2.81421">
        <ele>1899.3130227767</ele>
        <time>2015-08-18T10:10:06Z</time>
      </trkpt>
      <trkpt lat="45.52798" lon="2.81426">
        <ele>1899.3130227767</ele>
        <time>2015-08-18T10:10:16Z</time>
      </trkpt>
      <trkpt lat="45.52797" lon="2.81427">
        <ele>1899.3130227767</ele>
        <time>2015-08-18T10:10:24Z</time>
      </trkpt>
      <trkpt lat="45.5281" lon="2.81454">
        <ele>1908.1226455557</ele>
        <time>2015-08-18T10:11:04Z</time>
      </trkpt>
      <trkpt lat="45.52806" lon="2.81461">
        <ele>1908.1226455557</ele>
        <time>2015-08-18T10:11:11Z</time>
      </trkpt>
      <trkpt lat="45.52804" lon="2.8146">
        <ele>1908.1226455557</ele>
        <time>2015-08-18T10:11:14Z</time>
      </trkpt>
      <trkpt lat="45.52802" lon="2.8146">
        <ele>1916.2833157626</ele>
        <time>2015-08-18T10:11:19Z</time>
      </trkpt>
      <trkpt lat="45.528" lon="2.8146">
        <ele>1916.2833157626</ele>
        <time>2015-08-18T10:11:27Z</time>
      </trkpt>
      <trkpt lat="45.52778" lon="2.81458">
        <ele>1922.9108850144</ele>
        <time>2015-08-18T10:12:11Z</time>
      </trkpt>
      <trkpt lat="45.52778" lon="2.81456">
        <ele>1922.9108850144</ele>
        <time>2015-08-18T10:12:16Z</time>
      </trkpt>
      <trkpt lat="45.52774" lon="2.81469">
        <ele>1928.7901535574</ele>
        <time>2015-08-18T10:12:51Z</time>
      </trkpt>
      <trkpt lat="45.52779" lon="2.81501">
        <ele>1932.8473994064</ele>
        <time>2015-08-18T10:12:59Z</time>
      </trkpt>
      <trkpt lat="45.52778" lon="2.81511">
        <ele>1932.8473994064</ele>
        <time>2015-08-18T10:13:12Z</time>
      </trkpt>
      <trkpt lat="45.52776" lon="2.81508">
        <ele>1935.3285435819</ele>
        <time>2015-08-18T10:13:14Z</time>
      </trkpt>
      <trkpt lat="45.52769" lon="2.81498">
        <ele>1935.8770773918</ele>
        <time>2015-08-18T10:14:09Z</time>
      </trkpt>
      <trkpt lat="45.52757" lon="2.81511">
        <ele>1934.1308824371</ele>
        <time>2015-08-18T10:14:14Z</time>
      </trkpt>
      <trkpt lat="45.52758" lon="2.81512">
        <ele>1934.1308824371</ele>
        <time>2015-08-18T10:14:23Z</time>
      </trkpt>
      <trkpt lat="45.52769" lon="2.81563">
        <ele>1929.6878161767</ele>
        <time>2015-08-18T10:15:13Z</time>
      </trkpt>
      <trkpt lat="45.52769" lon="2.81565">
        <ele>1929.6878161767</ele>
        <time>2015-08-18T10:15:13Z</time>
      </trkpt>
      <trkpt lat="45.52769" lon="2.81565">
        <ele>1929.6878161767</ele>
        <time>2015-08-18T10:15:14Z</time>
      </trkpt>
      <trkpt lat="45.52771" lon="2.81581">
        <ele>1924.5616142455</ele>
        <time>2015-08-18T10:16:00Z</time>
      </trkpt>
      <trkpt lat="45.5278" lon="2.816">
        <ele>1919.1543172788</ele>
        <time>2015-08-18T10:16:12Z</time>
      </trkpt>
      <trkpt lat="45.52777" lon="2.81604">
        <ele>1919.1543172788</ele>
        <time>2015-08-18T10:16:14Z</time>
      </trkpt>
      <trkpt lat="45.52773" lon="2.81604">
        <ele>1919.1543172788</ele>
        <time>2015-08-18T10:16:25Z</time>
      </trkpt>
      <trkpt lat="45.52749" lon="2.81643">
        <ele>1910.6637502246</ele>
        <time>2015-08-18T10:17:14Z</time>
      </trkpt>
      <trkpt lat="45.52745" lon="2.81667">
        <ele>1900.4815062441</ele>
        <time>2015-08-18T10:17:19Z</time>
      </trkpt>
      <trkpt lat="45.52745" lon="2.81689">
        <ele>1890.2973518341</ele>
        <time>2015-08-18T10:17:32Z</time>
      </trkpt>
      <trkpt lat="45.52744" lon="2.81691">
        <ele>1890.2973518341</ele>
        <time>2015-08-18T10:17:37Z</time>
      </trkpt>
      <trkpt lat="45.52733" lon="2.81728">
        <ele>1879.7590790216</ele>
        <time>2015-08-18T10:18:00Z</time>
      </trkpt>
      <trkpt lat="45.52734" lon="2.81734">
        <ele>1879.7590790216</ele>
        <time>2015-08-18T10:18:04Z</time>
      </trkpt>
      <trkpt lat="45.52733" lon="2.8174">
        <ele>1879.7590790216</ele>
        <time>2015-08-18T10:18:09Z</time>
      </trkpt>
      <trkpt lat="45.52734" lon="2.81747">
        <ele>1869.2347566845</ele>
        <time>2015-08-18T10:18:14Z</time>
      </trkpt>
      <trkpt lat="45.52735" lon="2.81751">
        <ele>1869.2347566845</ele>
        <time>2015-08-18T10:18:24Z</time>
      </trkpt>
      <trkpt lat="45.52738" lon="2.81776">
        <ele>1859.1336108097</ele>
        <time>2015-08-18T10:18:34Z</time>
      </trkpt>
      <trkpt lat="45.5274" lon="2.81781">
        <ele>1859.1336108097</ele>
        <time>2015-08-18T10:18:39Z</time>
      </trkpt>
      <trkpt lat="45.52742" lon="2.81798">
        <ele>1849.5125306662</ele>
        <time>2015-08-18T10:18:51Z</time>
      </trkpt>
      <trkpt lat="45.52741" lon="2.81807">
        <ele>1849.5125306662</ele>
        <time>2015-08-18T10:18:55Z</time>
      </trkpt>
      <trkpt lat="45.52741" lon="2.8182">
        <ele>1840.3272821798</ele>
        <time>2015-08-18T10:19:02Z</time>
      </trkpt>
      <trkpt lat="45.52744" lon="2.81847">
        <ele>1831.9456258895</ele>
        <time>2015-08-18T10:19:21Z</time>
      </trkpt>
      <trkpt lat="45.52747" lon="2.81896">
        <ele>1823.1868537226</ele>
        <time>2015-08-18T10:20:01Z</time>
      </trkpt>
      <trkpt lat="45.52744" lon="2.81925">
        <ele>1814.7582679564</ele>
        <time>2015-08-18T10:20:04Z</time>
      </trkpt>
      <trkpt lat="45.52744" lon="2.81958">
        <ele>1806.2991725055</ele>
        <time>2015-08-18T10:20:48Z</time>
      </trkpt>
      <trkpt lat="45.5277" lon="2.81926">
        <ele>1797.8998237529</ele>
        <time>2015-08-18T10:21:05Z</time>
      </trkpt>
      <trkpt lat="45.52776" lon="2.81923">
        <ele>1797.8998237529</ele>
        <time>2015-08-18T10:21:17Z</time>
      </trkpt>
      <trkpt lat="45.52781" lon="2.81932">
        <ele>1789.9492646745</ele>
        <time>2015-08-18T10:21:20Z</time>
      </trkpt>
      <trkpt lat="45.52783" lon="2.81938">
        <ele>1789.9492646745</ele>
        <time>2015-08-18T10:21:28Z</time>
      </trkpt>
      <trkpt lat="45.52782" lon="2.81963">
        <ele>1782.1385421829</ele>
        <time>2015-08-18T10:21:36Z</time>
      </trkpt>
      <trkpt lat="45.52782" lon="2.81964">
        <ele>1782.1385421829</ele>
        <time>2015-08-18T10:21:44Z</time>
      </trkpt>
      <trkpt lat="45.52791" lon="2.8201">
        <ele>1774.1334877052</ele>
        <time>2015-08-18T10:22:04Z</time>
      </trkpt>
      <trkpt lat="45.52794" lon="2.8202">
        <ele>1774.1334877052</ele>
        <time>2015-08-18T10:22:12Z</time>
      </trkpt>
      <trkpt lat="45.52794" lon="2.82028">
        <ele>1766.6721893933</ele>
        <time>2015-08-18T10:22:16Z</time>
      </trkpt>
      <trkpt lat="45.52795" lon="2.82038">
        <ele>1766.6721893933</ele>
        <time>2015-08-18T10:22:21Z</time>
      </trkpt>
      <trkpt lat="45.52796" lon="2.8204">
        <ele>1766.6721893933</ele>
        <time>2015-08-18T10:22:27Z</time>
      </trkpt>
      <trkpt lat="45.52816" lon="2.82112">
        <ele>1758.853159254</ele>
        <time>2015-08-18T10:23:04Z</time>
      </trkpt>
      <trkpt lat="45.5282" lon="2.82118">
        <ele>1758.853159254</ele>
        <time>2015-08-18T10:23:12Z</time>
      </trkpt>
      <trkpt lat="45.5283" lon="2.82142">
        <ele>1751.5519496249</ele>
        <time>2015-08-18T10:23:26Z</time>
      </trkpt>
      <trkpt lat="45.52851" lon="2.82165">
        <ele>1744.8626969767</ele>
        <time>2015-08-18T10:23:52Z</time>
      </trkpt>
      <trkpt lat="45.52851" lon="2.82166">
        <ele>1744.8626969767</ele>
        <time>2015-08-18T10:23:54Z</time>
      </trkpt>
      <trkpt lat="45.52856" lon="2.82179">
        <ele>1738.7654816745</ele>
        <time>2015-08-18T10:24:04Z</time>
      </trkpt>
      <trkpt lat="45.52857" lon="2.8219">
        <ele>1738.7654816745</ele>
        <time>2015-08-18T10:24:16Z</time>
      </trkpt>
      <trkpt lat="45.52857" lon="2.82206">
        <ele>1733.0200490156</ele>
        <time>2015-08-18T10:24:31Z</time>
      </trkpt>
      <trkpt lat="45.52856" lon="2.82218">
        <ele>1733.0200490156</ele>
        <time>2015-08-18T10:24:42Z</time>
      </trkpt>
      <trkpt lat="45.52856" lon="2.82245">
        <ele>1726.8515500901</ele>
        <time>2015-08-18T10:24:56Z</time>
      </trkpt>
      <trkpt lat="45.52856" lon="2.82255">
        <ele>1726.8515500901</ele>
        <time>2015-08-18T10:25:04Z</time>
      </trkpt>
      <trkpt lat="45.5286" lon="2.82261">
        <ele>1721.1865051971</ele>
        <time>2015-08-18T10:25:13Z</time>
      </trkpt>
      <trkpt lat="45.52864" lon="2.8227">
        <ele>1721.1865051971</ele>
        <time>2015-08-18T10:25:27Z</time>
      </trkpt>
      <trkpt lat="45.52864" lon="2.8227">
        <ele>1721.1865051971</ele>
        <time>2015-08-18T10:25:34Z</time>
      </trkpt>
      <trkpt lat="45.52868" lon="2.82271">
        <ele>1715.9615153158</ele>
        <time>2015-08-18T10:25:47Z</time>
      </trkpt>
      <trkpt lat="45.5287" lon="2.82274">
        <ele>1715.9615153158</ele>
        <time>2015-08-18T10:25:52Z</time>
      </trkpt>
      <trkpt lat="45.52876" lon="2.82287">
        <ele>1711.3453969959</ele>
        <time>2015-08-18T10:26:04Z</time>
      </trkpt>
      <trkpt lat="45.52877" lon="2.82288">
        <ele>1711.3453969959</ele>
        <time>2015-08-18T10:26:04Z</time>
      </trkpt>
      <trkpt lat="45.52879" lon="2.82292">
        <ele>1711.3453969959</ele>
        <time>2015-08-18T10:26:09Z</time>
      </trkpt>
      <trkpt lat="45.5288" lon="2.82298">
        <ele>1711.3453969959</ele>
        <time>2015-08-18T10:26:26Z</time>
      </trkpt>
      <trkpt lat="45.52885" lon="2.82316">
        <ele>1707.4818413742</ele>
        <time>2015-08-18T10:26:31Z</time>
      </trkpt>
      <trkpt lat="45.52895" lon="2.82336">
        <ele>1704.4891227569</ele>
        <time>2015-08-18T10:26:56Z</time>
      </trkpt>
      <trkpt lat="45.52901" lon="2.8235">
        <ele>1702.1226275913</ele>
        <time>2015-08-18T10:27:06Z</time>
      </trkpt>
      <trkpt lat="45.52912" lon="2.82392">
        <ele>1700.5152396208</ele>
        <time>2015-08-18T10:27:54Z</time>
      </trkpt>
      <trkpt lat="45.52917" lon="2.82408">
        <ele>1699.5355818892</ele>
        <time>2015-08-18T10:28:06Z</time>
      </trkpt>
      <trkpt lat="45.52919" lon="2.82411">
        <ele>1699.5355818892</ele>
        <time>2015-08-18T10:28:11Z</time>
      </trkpt>
      <trkpt lat="45.52919" lon="2.82411">
        <ele>1699.5355818892</ele>
        <time>2015-08-18T10:28:18Z</time>
      </trkpt>
      <trkpt lat="45.5292" lon="2.82414">
        <ele>1699.5355818892</ele>
        <time>2015-08-18T10:28:19Z</time>
      </trkpt>
      <trkpt lat="45.52909" lon="2.8242">
        <ele>1699.2344264607</ele>
        <time>2015-08-18T10:28:46Z</time>
      </trkpt>
      <trkpt lat="45.52892" lon="2.82425">
        <ele>1699.2664472106</ele>
        <time>2015-08-18T10:29:09Z</time>
      </trkpt>
      <trkpt lat="45.52891" lon="2.82426">
        <ele>1699.2664472106</ele>
        <time>2015-08-18T10:29:24Z</time>
      </trkpt>
      <trkpt lat="45.5289" lon="2.82432">
        <ele>1699.2664472106</ele>
        <time>2015-08-18T10:29:36Z</time>
      </trkpt>
      <trkpt lat="45.52889" lon="2.82434">
        <ele>1699.2664472106</ele>
        <time>2015-08-18T10:30:06Z</time>
      </trkpt>
      <trkpt lat="45.52885" lon="2.82441">
        <ele>1699.786234354</ele>
        <time>2015-08-18T10:30:13Z</time>
      </trkpt>
      <trkpt lat="45.52888" lon="2.82437">
        <ele>1699.786234354</ele>
        <time>2015-08-18T10:35:19Z</time>
      </trkpt>
      <trkpt lat="45.5289" lon="2.82435">
        <ele>1699.786234354</ele>
        <time>2015-08-18T10:35:33Z</time>
      </trkpt>
      <trkpt lat="45.52895" lon="2.82427">
        <ele>1699.642207528</ele>
        <time>2015-08-18T10:35:37Z</time>
      </trkpt>
      <trkpt lat="45.529" lon="2.82419">
        <ele>1699.642207528</ele>
        <time>2015-08-18T10:35:53Z</time>
      </trkpt>
      <trkpt lat="45.52922" lon="2.82412">
        <ele>1700.3577679867</ele>
        <time>2015-08-18T10:36:10Z</time>
      </trkpt>
      <trkpt lat="45.5293" lon="2.82413">
        <ele>1700.3577679867</ele>
        <time>2015-08-18T10:36:16Z</time>
      </trkpt>
      <trkpt lat="45.52932" lon="2.82413">
        <ele>1701.3989916525</ele>
        <time>2015-08-18T10:36:24Z</time>
      </trkpt>
      <trkpt lat="45.52979" lon="2.82427">
        <ele>1703.0698819261</ele>
        <time>2015-08-18T10:37:03Z</time>
      </trkpt>
      <trkpt lat="45.52988" lon="2.82432">
        <ele>1705.0153604597</ele>
        <time>2015-08-18T10:37:13Z</time>
      </trkpt>
      <trkpt lat="45.52995" lon="2.82437">
        <ele>1705.0153604597</ele>
        <time>2015-08-18T10:37:19Z</time>
      </trkpt>
      <trkpt lat="45.53003" lon="2.82443">
        <ele>1707.2543523679</ele>
        <time>2015-08-18T10:37:28Z</time>
      </trkpt>
      <trkpt lat="45.53025" lon="2.82493">
        <ele>1709.5478292532</ele>
        <time>2015-08-18T10:38:11Z</time>
      </trkpt>
      <trkpt lat="45.53026" lon="2.82497">
        <ele>1709.5478292532</ele>
        <time>2015-08-18T10:38:14Z</time>
      </trkpt>
      <trkpt lat="45.53029" lon="2.82505">
        <ele>1711.7219531222</ele>
        <time>2015-08-18T10:38:29Z</time>
      </trkpt>
      <trkpt lat="45.53056" lon="2.82537">
        <ele>1713.2128932315</ele>
        <time>2015-08-18T10:39:15Z</time>
      </trkpt>
      <trkpt lat="45.53077" lon="2.82524">
        <ele>1714.6917117499</ele>
        <time>2015-08-18T10:39:54Z</time>
      </trkpt>
      <trkpt lat="45.53087" lon="2.82523">
        <ele>1715.2781408781</ele>
        <time>2015-08-18T10:40:14Z</time>
      </trkpt>
      <trkpt lat="45.53091" lon="2.8252">
        <ele>1715.2781408781</ele>
        <time>2015-08-18T10:40:19Z</time>
      </trkpt>
      <trkpt lat="45.53114" lon="2.82518">
        <ele>1715.7668208709</ele>
        <time>2015-08-18T10:40:49Z</time>
      </trkpt>
      <trkpt lat="45.53119" lon="2.82517">
        <ele>1715.7668208709</ele>
        <time>2015-08-18T10:40:54Z</time>
      </trkpt>
      <trkpt lat="45.53124" lon="2.82516">
        <ele>1716.2609695774</ele>
        <time>2015-08-18T10:40:59Z</time>
      </trkpt>
      <trkpt lat="45.5313" lon="2.82517">
        <ele>1716.2609695774</ele>
        <time>2015-08-18T10:41:04Z</time>
      </trkpt>
      <trkpt lat="45.53134" lon="2.82517">
        <ele>1716.7218075483</ele>
        <time>2015-08-18T10:41:09Z</time>
      </trkpt>
      <trkpt lat="45.53136" lon="2.82514">
        <ele>1716.7218075483</ele>
        <time>2015-08-18T10:41:14Z</time>
      </trkpt>
      <trkpt lat="45.53141" lon="2.82511">
        <ele>1716.7218075483</ele>
        <time>2015-08-18T10:41:19Z</time>
      </trkpt>
      <trkpt lat="45.53154" lon="2.82508">
        <ele>1716.75862342</ele>
        <time>2015-08-18T10:41:41Z</time>
      </trkpt>
      <trkpt lat="45.53164" lon="2.82513">
        <ele>1716.8872444872</ele>
        <time>2015-08-18T10:42:14Z</time>
      </trkpt>
      <trkpt lat="45.53166" lon="2.82513">
        <ele>1716.8872444872</ele>
        <time>2015-08-18T10:42:20Z</time>
      </trkpt>
      <trkpt lat="45.53172" lon="2.82518">
        <ele>1716.8872444872</ele>
        <time>2015-08-18T10:42:31Z</time>
      </trkpt>
      <trkpt lat="45.53181" lon="2.82535">
        <ele>1716.9314177914</ele>
        <time>2015-08-18T10:42:48Z</time>
      </trkpt>
      <trkpt lat="45.53182" lon="2.82535">
        <ele>1716.9314177914</ele>
        <time>2015-08-18T10:42:49Z</time>
      </trkpt>
      <trkpt lat="45.53195" lon="2.82543">
        <ele>1717.4215507634</ele>
        <time>2015-08-18T10:43:15Z</time>
      </trkpt>
      <trkpt lat="45.53209" lon="2.82551">
        <ele>1718.2706859611</ele>
        <time>2015-08-18T10:43:39Z</time>
      </trkpt>
      <trkpt lat="45.53212" lon="2.82553">
        <ele>1718.2706859611</ele>
        <time>2015-08-18T10:44:04Z</time>
      </trkpt>
      <trkpt lat="45.53218" lon="2.8256">
        <ele>1719.3545554491</ele>
        <time>2015-08-18T10:44:14Z</time>
      </trkpt>
      <trkpt lat="45.53222" lon="2.82564">
        <ele>1719.3545554491</ele>
        <time>2015-08-18T10:44:19Z</time>
      </trkpt>
      <trkpt lat="45.53247" lon="2.82582">
        <ele>1720.7634822607</ele>
        <time>2015-08-18T10:45:14Z</time>
      </trkpt>
      <trkpt lat="45.53274" lon="2.82602">
        <ele>1722.3465331022</ele>
        <time>2015-08-18T10:45:45Z</time>
      </trkpt>
      <trkpt lat="45.53283" lon="2.82609">
        <ele>1723.9939968444</ele>
        <time>2015-08-18T10:45:54Z</time>
      </trkpt>
      <trkpt lat="45.53302" lon="2.8262">
        <ele>1725.4741973029</ele>
        <time>2015-08-18T10:46:21Z</time>
      </trkpt>
      <trkpt lat="45.53351" lon="2.82632">
        <ele>1726.5745037728</ele>
        <time>2015-08-18T10:47:16Z</time>
      </trkpt>
      <trkpt lat="45.53354" lon="2.82636">
        <ele>1726.5745037728</ele>
        <time>2015-08-18T10:47:19Z</time>
      </trkpt>
      <trkpt lat="45.53367" lon="2.8266">
        <ele>1727.5207382821</ele>
        <time>2015-08-18T10:47:57Z</time>
      </trkpt>
      <trkpt lat="45.53375" lon="2.8268">
        <ele>1728.2753191007</ele>
        <time>2015-08-18T10:48:15Z</time>
      </trkpt>
      <trkpt lat="45.53387" lon="2.82703">
        <ele>1728.7463747077</ele>
        <time>2015-08-18T10:48:24Z</time>
      </trkpt>
      <trkpt lat="45.53428" lon="2.82754">
        <ele>1727.8087999237</ele>
        <time>2015-08-18T10:49:04Z</time>
      </trkpt>
      <trkpt lat="45.53442" lon="2.82758">
        <ele>1726.7682931234</ele>
        <time>2015-08-18T10:49:16Z</time>
      </trkpt>
      <trkpt lat="45.53445" lon="2.82762">
        <ele>1726.7682931234</ele>
        <time>2015-08-18T10:49:21Z</time>
      </trkpt>
      <trkpt lat="45.53445" lon="2.82765">
        <ele>1726.7682931234</ele>
        <time>2015-08-18T10:49:26Z</time>
      </trkpt>
      <trkpt lat="45.53447" lon="2.8277">
        <ele>1725.6761759573</ele>
        <time>2015-08-18T10:49:32Z</time>
      </trkpt>
      <trkpt lat="45.5345" lon="2.82784">
        <ele>1724.5658721284</ele>
        <time>2015-08-18T10:50:19Z</time>
      </trkpt>
      <trkpt lat="45.53447" lon="2.8279">
        <ele>1724.5658721284</ele>
        <time>2015-08-18T10:50:28Z</time>
      </trkpt>
      <trkpt lat="45.53446" lon="2.82791">
        <ele>1724.5658721284</ele>
        <time>2015-08-18T10:51:19Z</time>
      </trkpt>
      <trkpt lat="45.53449" lon="2.82792">
        <ele>1724.4787289046</ele>
        <time>2015-08-18T10:52:03Z</time>
      </trkpt>
      <trkpt lat="45.53452" lon="2.8278">
        <ele>1723.4618041177</ele>
        <time>2015-08-18T10:56:24Z</time>
      </trkpt>
      <trkpt lat="45.53453" lon="2.82776">
        <ele>1723.4618041177</ele>
        <time>2015-08-18T10:56:32Z</time>
      </trkpt>
      <trkpt lat="45.53451" lon="2.82771">
        <ele>1723.4618041177</ele>
        <time>2015-08-18T10:56:34Z</time>
      </trkpt>
      <trkpt lat="45.53448" lon="2.82767">
        <ele>1722.5661198003</ele>
        <time>2015-08-18T10:56:39Z</time>
      </trkpt>
      <trkpt lat="45.53452" lon="2.82763">
        <ele>1722.5661198003</ele>
        <time>2015-08-18T10:56:44Z</time>
      </trkpt>
      <trkpt lat="45.53481" lon="2.82768">
        <ele>1722.0001846313</ele>
        <time>2015-08-18T10:57:29Z</time>
      </trkpt>
      <trkpt lat="45.53531" lon="2.82758">
        <ele>1722.5187463586</ele>
        <time>2015-08-18T10:58:29Z</time>
      </trkpt>
      <trkpt lat="45.53568" lon="2.82758">
        <ele>1725.5101896088</ele>
        <time>2015-08-18T10:59:24Z</time>
      </trkpt>
      <trkpt lat="45.53574" lon="2.82759">
        <ele>1725.5101896088</ele>
        <time>2015-08-18T10:59:35Z</time>
      </trkpt>
      <trkpt lat="45.53577" lon="2.82761">
        <ele>1728.6785878522</ele>
        <time>2015-08-18T10:59:42Z</time>
      </trkpt>
      <trkpt lat="45.5359" lon="2.82765">
        <ele>1731.6700332725</ele>
        <time>2015-08-18T11:00:01Z</time>
      </trkpt>
      <trkpt lat="45.53591" lon="2.82765">
        <ele>1731.6700332725</ele>
        <time>2015-08-18T11:00:01Z</time>
      </trkpt>
      <trkpt lat="45.53602" lon="2.82762">
        <ele>1735.1520925356</ele>
        <time>2015-08-18T11:00:24Z</time>
      </trkpt>
      <trkpt lat="45.53603" lon="2.82762">
        <ele>1735.1520925356</ele>
        <time>2015-08-18T11:00:24Z</time>
      </trkpt>
      <trkpt lat="45.53637" lon="2.82759">
        <ele>1739.4681823424</ele>
        <time>2015-08-18T11:01:24Z</time>
      </trkpt>
      <trkpt lat="45.53648" lon="2.82764">
        <ele>1743.7375881966</ele>
        <time>2015-08-18T11:01:49Z</time>
      </trkpt>
      <trkpt lat="45.53655" lon="2.82762">
        <ele>1743.7375881966</ele>
        <time>2015-08-18T11:02:09Z</time>
      </trkpt>
      <trkpt lat="45.53666" lon="2.82763">
        <ele>1748.1683500319</ele>
        <time>2015-08-18T11:02:30Z</time>
      </trkpt>
      <trkpt lat="45.53669" lon="2.82766">
        <ele>1748.1683500319</ele>
        <time>2015-08-18T11:02:40Z</time>
      </trkpt>
      <trkpt lat="45.53677" lon="2.82778">
        <ele>1752.1887117076</ele>
        <time>2015-08-18T11:02:50Z</time>
      </trkpt>
      <trkpt lat="45.53696" lon="2.82795">
        <ele>1755.6740531958</ele>
        <time>2015-08-18T11:03:17Z</time>
      </trkpt>
      <trkpt lat="45.53709" lon="2.82807">
        <ele>1758.698167149</ele>
        <time>2015-08-18T11:03:28Z</time>
      </trkpt>
      <trkpt lat="45.53714" lon="2.82812">
        <ele>1758.698167149</ele>
        <time>2015-08-18T11:03:38Z</time>
      </trkpt>
      <trkpt lat="45.53717" lon="2.82818">
        <ele>1761.1723651078</ele>
        <time>2015-08-18T11:03:39Z</time>
      </trkpt>
      <trkpt lat="45.53717" lon="2.82818">
        <ele>1761.1723651078</ele>
        <time>2015-08-18T11:03:44Z</time>
      </trkpt>
      <trkpt lat="45.5372" lon="2.82823">
        <ele>1761.1723651078</ele>
        <time>2015-08-18T11:05:15Z</time>
      </trkpt>
      <trkpt lat="45.53723" lon="2.82825">
        <ele>1761.1723651078</ele>
        <time>2015-08-18T11:05:19Z</time>
      </trkpt>
      <trkpt lat="45.53723" lon="2.82825">
        <ele>1761.1723651078</ele>
        <time>2015-08-18T11:05:24Z</time>
      </trkpt>
      <trkpt lat="45.53726" lon="2.82829">
        <ele>1762.6845631682</ele>
        <time>2015-08-18T11:05:54Z</time>
      </trkpt>
      <trkpt lat="45.53729" lon="2.82831">
        <ele>1762.6845631682</ele>
        <time>2015-08-18T11:05:59Z</time>
      </trkpt>
      <trkpt lat="45.53729" lon="2.82832">
        <ele>1762.6845631682</ele>
        <time>2015-08-18T11:06:04Z</time>
      </trkpt>
      <trkpt lat="45.5373" lon="2.82837">
        <ele>1762.6845631682</ele>
        <time>2015-08-18T11:06:19Z</time>
      </trkpt>
      <trkpt lat="45.53732" lon="2.8284">
        <ele>1763.9377448878</ele>
        <time>2015-08-18T11:06:24Z</time>
      </trkpt>
      <trkpt lat="45.53735" lon="2.82844">
        <ele>1763.9377448878</ele>
        <time>2015-08-18T11:06:29Z</time>
      </trkpt>
      <trkpt lat="45.53737" lon="2.8285">
        <ele>1763.9377448878</ele>
        <time>2015-08-18T11:06:34Z</time>
      </trkpt>
      <trkpt lat="45.5374" lon="2.82855">
        <ele>1764.8486307319</ele>
        <time>2015-08-18T11:06:39Z</time>
      </trkpt>
      <trkpt lat="45.53741" lon="2.82856">
        <ele>1764.8486307319</ele>
        <time>2015-08-18T11:06:44Z</time>
      </trkpt>
      <trkpt lat="45.53741" lon="2.82856">
        <ele>1764.8486307319</ele>
        <time>2015-08-18T11:06:49Z</time>
      </trkpt>
      <trkpt lat="45.53742" lon="2.82858">
        <ele>1764.8486307319</ele>
        <time>2015-08-18T11:07:04Z</time>
      </trkpt>
      <trkpt lat="45.53745" lon="2.82863">
        <ele>1764.8486307319</ele>
        <time>2015-08-18T11:07:09Z</time>
      </trkpt>
      <trkpt lat="45.53749" lon="2.82867">
        <ele>1765.4278237267</ele>
        <time>2015-08-18T11:07:14Z</time>
      </trkpt>
      <trkpt lat="45.5375" lon="2.82869">
        <ele>1765.4278237267</ele>
        <time>2015-08-18T11:07:19Z</time>
      </trkpt>
      <trkpt lat="45.53751" lon="2.82874">
        <ele>1765.4278237267</ele>
        <time>2015-08-18T11:07:24Z</time>
      </trkpt>
      <trkpt lat="45.53752" lon="2.8288">
        <ele>1765.7728608776</ele>
        <time>2015-08-18T11:07:29Z</time>
      </trkpt>
      <trkpt lat="45.53752" lon="2.8288">
        <ele>1765.7728608776</ele>
        <time>2015-08-18T11:07:34Z</time>
      </trkpt>
      <trkpt lat="45.53755" lon="2.82885">
        <ele>1765.7728608776</ele>
        <time>2015-08-18T11:07:39Z</time>
      </trkpt>
      <trkpt lat="45.53758" lon="2.82893">
        <ele>1765.8307322786</ele>
        <time>2015-08-18T11:07:44Z</time>
      </trkpt>
      <trkpt lat="45.5376" lon="2.82899">
        <ele>1765.8307322786</ele>
        <time>2015-08-18T11:07:49Z</time>
      </trkpt>
      <trkpt lat="45.53766" lon="2.82913">
        <ele>1765.5100496258</ele>
        <time>2015-08-18T11:07:58Z</time>
      </trkpt>
      <trkpt lat="45.53766" lon="2.82914">
        <ele>1765.5100496258</ele>
        <time>2015-08-18T11:07:59Z</time>
      </trkpt>
      <trkpt lat="45.53775" lon="2.82946">
        <ele>1764.2946735324</ele>
        <time>2015-08-18T11:08:21Z</time>
      </trkpt>
      <trkpt lat="45.53776" lon="2.82951">
        <ele>1764.2946735324</ele>
        <time>2015-08-18T11:08:24Z</time>
      </trkpt>
      <trkpt lat="45.53777" lon="2.82956">
        <ele>1764.2946735324</ele>
        <time>2015-08-18T11:08:35Z</time>
      </trkpt>
      <trkpt lat="45.53781" lon="2.82969">
        <ele>1762.6754571505</ele>
        <time>2015-08-18T11:08:35Z</time>
      </trkpt>
      <trkpt lat="45.53797" lon="2.83001">
        <ele>1760.3295387294</ele>
        <time>2015-08-18T11:08:57Z</time>
      </trkpt>
      <trkpt lat="45.538" lon="2.83006">
        <ele>1760.3295387294</ele>
        <time>2015-08-18T11:09:00Z</time>
      </trkpt>
      <trkpt lat="45.53809" lon="2.83021">
        <ele>1757.6521902012</ele>
        <time>2015-08-18T11:09:12Z</time>
      </trkpt>
      <trkpt lat="45.53811" lon="2.83022">
        <ele>1757.6521902012</ele>
        <time>2015-08-18T11:09:17Z</time>
      </trkpt>
      <trkpt lat="45.53816" lon="2.83025">
        <ele>1757.6521902012</ele>
        <time>2015-08-18T11:09:25Z</time>
      </trkpt>
      <trkpt lat="45.53854" lon="2.83072">
        <ele>1754.5346322061</ele>
        <time>2015-08-18T11:10:08Z</time>
      </trkpt>
      <trkpt lat="45.53882" lon="2.83101">
        <ele>1751.353197948</ele>
        <time>2015-08-18T11:10:29Z</time>
      </trkpt>
      <trkpt lat="45.53911" lon="2.83117">
        <ele>1748.7017617473</ele>
        <time>2015-08-18T11:11:23Z</time>
      </trkpt>
      <trkpt lat="45.53914" lon="2.8312">
        <ele>1748.7017617473</ele>
        <time>2015-08-18T11:11:24Z</time>
      </trkpt>
      <trkpt lat="45.53914" lon="2.83121">
        <ele>1748.7017617473</ele>
        <time>2015-08-18T11:11:29Z</time>
      </trkpt>
      <trkpt lat="45.53957" lon="2.83141">
        <ele>1747.0135315171</ele>
        <time>2015-08-18T11:12:32Z</time>
      </trkpt>
      <trkpt lat="45.53962" lon="2.83143">
        <ele>1747.0135315171</ele>
        <time>2015-08-18T11:12:34Z</time>
      </trkpt>
      <trkpt lat="45.53988" lon="2.83153">
        <ele>1746.3986417887</ele>
        <time>2015-08-18T11:13:11Z</time>
      </trkpt>
      <trkpt lat="45.53989" lon="2.83154">
        <ele>1746.3986417887</ele>
        <time>2015-08-18T11:13:16Z</time>
      </trkpt>
      <trkpt lat="45.53998" lon="2.8316">
        <ele>1746.2207138918</ele>
        <time>2015-08-18T11:13:28Z</time>
      </trkpt>
      <trkpt lat="45.53998" lon="2.83163">
        <ele>1746.2207138918</ele>
        <time>2015-08-18T11:13:29Z</time>
      </trkpt>
      <trkpt lat="45.54" lon="2.83165">
        <ele>1746.2207138918</ele>
        <time>2015-08-18T11:13:42Z</time>
      </trkpt>
      <trkpt lat="45.54018" lon="2.83188">
        <ele>1746.6674079224</ele>
        <time>2015-08-18T11:14:28Z</time>
      </trkpt>
      <trkpt lat="45.54019" lon="2.83188">
        <ele>1746.6674079224</ele>
        <time>2015-08-18T11:14:29Z</time>
      </trkpt>
      <trkpt lat="45.54026" lon="2.83193">
        <ele>1746.6674079224</ele>
        <time>2015-08-18T11:14:45Z</time>
      </trkpt>
      <trkpt lat="45.54042" lon="2.83261">
        <ele>1746.8727460923</ele>
        <time>2015-08-18T11:15:29Z</time>
      </trkpt>
      <trkpt lat="45.54043" lon="2.83269">
        <ele>1746.8727460923</ele>
        <time>2015-08-18T11:15:36Z</time>
      </trkpt>
      <trkpt lat="45.54052" lon="2.83304">
        <ele>1746.6837717048</ele>
        <time>2015-08-18T11:16:34Z</time>
      </trkpt>
      <trkpt lat="45.54055" lon="2.83319">
        <ele>1746.4498760389</ele>
        <time>2015-08-18T11:16:45Z</time>
      </trkpt>
      <trkpt lat="45.54055" lon="2.83324">
        <ele>1746.4498760389</ele>
        <time>2015-08-18T11:17:00Z</time>
      </trkpt>
      <trkpt lat="45.54072" lon="2.83356">
        <ele>1745.5145665284</ele>
        <time>2015-08-18T11:17:34Z</time>
      </trkpt>
      <trkpt lat="45.54073" lon="2.83366">
        <ele>1745.5145665284</ele>
        <time>2015-08-18T11:17:57Z</time>
      </trkpt>
      <trkpt lat="45.54074" lon="2.83431">
        <ele>1743.5453680708</ele>
        <time>2015-08-18T11:18:34Z</time>
      </trkpt>
      <trkpt lat="45.5407" lon="2.8344">
        <ele>1743.5453680708</ele>
        <time>2015-08-18T11:18:49Z</time>
      </trkpt>
      <trkpt lat="45.54077" lon="2.83488">
        <ele>1740.9144531903</ele>
        <time>2015-08-18T11:19:34Z</time>
      </trkpt>
      <trkpt lat="45.54082" lon="2.83492">
        <ele>1740.9144531903</ele>
        <time>2015-08-18T11:19:39Z</time>
      </trkpt>
      <trkpt lat="45.54139" lon="2.8355">
        <ele>1734.941593127</ele>
        <time>2015-08-18T11:21:23Z</time>
      </trkpt>
      <trkpt lat="45.54155" lon="2.83562">
        <ele>1728.8314445179</ele>
        <time>2015-08-18T11:21:41Z</time>
      </trkpt>
      <trkpt lat="45.54182" lon="2.83595">
        <ele>1721.834764839</ele>
        <time>2015-08-18T11:22:19Z</time>
      </trkpt>
      <trkpt lat="45.54195" lon="2.83606">
        <ele>1714.6576123427</ele>
        <time>2015-08-18T11:22:36Z</time>
      </trkpt>
      <trkpt lat="45.54198" lon="2.83607">
        <ele>1714.6576123427</ele>
        <time>2015-08-18T11:22:39Z</time>
      </trkpt>
      <trkpt lat="45.54218" lon="2.83618">
        <ele>1707.6949389338</ele>
        <time>2015-08-18T11:23:35Z</time>
      </trkpt>
      <trkpt lat="45.54235" lon="2.83635">
        <ele>1698.8329273271</ele>
        <time>2015-08-18T11:23:45Z</time>
      </trkpt>
      <trkpt lat="45.54259" lon="2.83701">
        <ele>1687.9483365204</ele>
        <time>2015-08-18T11:24:39Z</time>
      </trkpt>
      <trkpt lat="45.54264" lon="2.83776">
        <ele>1676.4454160238</ele>
        <time>2015-08-18T11:25:30Z</time>
      </trkpt>
      <trkpt lat="45.54265" lon="2.83806">
        <ele>1665.7417672207</ele>
        <time>2015-08-18T11:25:39Z</time>
      </trkpt>
      <trkpt lat="45.54279" lon="2.83856">
        <ele>1654.4819703885</ele>
        <time>2015-08-18T11:26:19Z</time>
      </trkpt>
      <trkpt lat="45.54287" lon="2.83879">
        <ele>1643.7602105649</ele>
        <time>2015-08-18T11:26:37Z</time>
      </trkpt>
      <trkpt lat="45.54288" lon="2.83881">
        <ele>1643.7602105649</ele>
        <time>2015-08-18T11:26:42Z</time>
      </trkpt>
      <trkpt lat="45.54296" lon="2.83918">
        <ele>1633.1758509648</ele>
        <time>2015-08-18T11:27:05Z</time>
      </trkpt>
      <trkpt lat="45.54301" lon="2.83944">
        <ele>1623.1060271982</ele>
        <time>2015-08-18T11:27:19Z</time>
      </trkpt>
      <trkpt lat="45.54306" lon="2.83966">
        <ele>1613.5665779483</ele>
        <time>2015-08-18T11:27:36Z</time>
      </trkpt>
      <trkpt lat="45.54308" lon="2.83976">
        <ele>1613.5665779483</ele>
        <time>2015-08-18T11:27:44Z</time>
      </trkpt>
      <trkpt lat="45.54306" lon="2.84033">
        <ele>1605.9246404115</ele>
        <time>2015-08-18T11:28:39Z</time>
      </trkpt>
      <trkpt lat="45.54307" lon="2.84036">
        <ele>1605.9246404115</ele>
        <time>2015-08-18T11:28:49Z</time>
      </trkpt>
      <trkpt lat="45.54309" lon="2.84044">
        <ele>1605.9246404115</ele>
        <time>2015-08-18T11:28:54Z</time>
      </trkpt>
      <trkpt lat="45.54305" lon="2.84061">
        <ele>1599.6106510085</ele>
        <time>2015-08-18T11:29:29Z</time>
      </trkpt>
      <trkpt lat="45.54312" lon="2.8406">
        <ele>1599.6106510085</ele>
        <time>2015-08-18T11:29:37Z</time>
      </trkpt>
      <trkpt lat="45.54314" lon="2.8406">
        <ele>1593.9483284555</ele>
        <time>2015-08-18T11:29:39Z</time>
      </trkpt>
      <trkpt lat="45.54342" lon="2.84127">
        <ele>1587.7320793273</ele>
        <time>2015-08-18T11:30:34Z</time>
      </trkpt>
      <trkpt lat="45.54341" lon="2.84128">
        <ele>1587.7320793273</ele>
        <time>2015-08-18T11:30:39Z</time>
      </trkpt>
      <trkpt lat="45.54342" lon="2.84133">
        <ele>1587.7320793273</ele>
        <time>2015-08-18T11:30:44Z</time>
      </trkpt>
      <trkpt lat="45.54342" lon="2.84184">
        <ele>1581.6615660354</ele>
        <time>2015-08-18T11:31:15Z</time>
      </trkpt>
      <trkpt lat="45.54341" lon="2.84186">
        <ele>1581.6615660354</ele>
        <time>2015-08-18T11:31:19Z</time>
      </trkpt>
      <trkpt lat="45.5434" lon="2.84193">
        <ele>1581.6615660354</ele>
        <time>2015-08-18T11:31:31Z</time>
      </trkpt>
      <trkpt lat="45.5434" lon="2.84196">
        <ele>1576.2686936102</ele>
        <time>2015-08-18T11:31:34Z</time>
      </trkpt>
      <trkpt lat="45.54329" lon="2.84283">
        <ele>1571.1358361245</ele>
        <time>2015-08-18T11:32:30Z</time>
      </trkpt>
      <trkpt lat="45.54331" lon="2.84296">
        <ele>1566.5952752995</ele>
        <time>2015-08-18T11:32:46Z</time>
      </trkpt>
      <trkpt lat="45.54357" lon="2.84358">
        <ele>1560.6756282716</ele>
        <time>2015-08-18T11:33:34Z</time>
      </trkpt>
      <trkpt lat="45.54358" lon="2.8436">
        <ele>1560.6756282716</ele>
        <time>2015-08-18T11:33:39Z</time>
      </trkpt>
      <trkpt lat="45.54358" lon="2.8436">
        <ele>1560.6756282716</ele>
        <time>2015-08-18T11:33:44Z</time>
      </trkpt>
      <trkpt lat="45.54365" lon="2.84394">
        <ele>1554.652104783</ele>
        <time>2015-08-18T11:34:24Z</time>
      </trkpt>
      <trkpt lat="45.54366" lon="2.84406">
        <ele>1554.652104783</ele>
        <time>2015-08-18T11:34:32Z</time>
      </trkpt>
      <trkpt lat="45.54367" lon="2.84408">
        <ele>1549.3457161859</ele>
        <time>2015-08-18T11:34:34Z</time>
      </trkpt>
      <trkpt lat="45.54367" lon="2.84413">
        <ele>1549.3457161859</ele>
        <time>2015-08-18T11:34:47Z</time>
      </trkpt>
      <trkpt lat="45.54394" lon="2.84448">
        <ele>1543.0791050119</ele>
        <time>2015-08-18T11:35:34Z</time>
      </trkpt>
      <trkpt lat="45.54425" lon="2.84458">
        <ele>1535.5541413513</ele>
        <time>2015-08-18T11:36:16Z</time>
      </trkpt>
      <trkpt lat="45.54426" lon="2.84459">
        <ele>1535.5541413513</ele>
        <time>2015-08-18T11:36:25Z</time>
      </trkpt>
      <trkpt lat="45.54437" lon="2.84472">
        <ele>1527.9820422402</ele>
        <time>2015-08-18T11:36:35Z</time>
      </trkpt>
      <trkpt lat="45.54432" lon="2.8452">
        <ele>1519.135651698</ele>
        <time>2015-08-18T11:37:19Z</time>
      </trkpt>
      <trkpt lat="45.5443" lon="2.84531">
        <ele>1519.135651698</ele>
        <time>2015-08-18T11:37:33Z</time>
      </trkpt>
      <trkpt lat="45.54429" lon="2.84539">
        <ele>1510.6480910765</ele>
        <time>2015-08-18T11:37:34Z</time>
      </trkpt>
      <trkpt lat="45.54427" lon="2.84546">
        <ele>1510.6480910765</ele>
        <time>2015-08-18T11:37:42Z</time>
      </trkpt>
      <trkpt lat="45.54426" lon="2.84556">
        <ele>1502.8781390462</ele>
        <time>2015-08-18T11:38:00Z</time>
      </trkpt>
      <trkpt lat="45.54435" lon="2.84575">
        <ele>1494.7722648698</ele>
        <time>2015-08-18T11:38:34Z</time>
      </trkpt>
      <trkpt lat="45.54451" lon="2.84602">
        <ele>1486.4356985854</ele>
        <time>2015-08-18T11:39:17Z</time>
      </trkpt>
      <trkpt lat="45.54468" lon="2.84624">
        <ele>1477.8941010208</ele>
        <time>2015-08-18T11:39:36Z</time>
      </trkpt>
      <trkpt lat="45.54478" lon="2.84638">
        <ele>1470.3963704966</ele>
        <time>2015-08-18T11:39:41Z</time>
      </trkpt>
      <trkpt lat="45.54482" lon="2.84642">
        <ele>1470.3963704966</ele>
        <time>2015-08-18T11:39:52Z</time>
      </trkpt>
      <trkpt lat="45.54488" lon="2.84647">
        <ele>1463.4966552866</ele>
        <time>2015-08-18T11:39:52Z</time>
      </trkpt>
      <trkpt lat="45.54503" lon="2.84662">
        <ele>1456.304209528</ele>
        <time>2015-08-18T11:40:39Z</time>
      </trkpt>
      <trkpt lat="45.54509" lon="2.84667">
        <ele>1456.304209528</ele>
        <time>2015-08-18T11:41:34Z</time>
      </trkpt>
      <trkpt lat="45.54512" lon="2.84668">
        <ele>1449.4641215134</ele>
        <time>2015-08-18T11:41:54Z</time>
      </trkpt>
      <trkpt lat="45.54513" lon="2.84671">
        <ele>1449.4641215134</ele>
        <time>2015-08-18T11:41:59Z</time>
      </trkpt>
      <trkpt lat="45.54514" lon="2.84673">
        <ele>1449.4641215134</ele>
        <time>2015-08-18T11:42:04Z</time>
      </trkpt>
      <trkpt lat="45.54514" lon="2.84674">
        <ele>1449.4641215134</ele>
        <time>2015-08-18T11:42:09Z</time>
      </trkpt>
      <trkpt lat="45.54515" lon="2.84678">
        <ele>1449.4641215134</ele>
        <time>2015-08-18T11:42:24Z</time>
      </trkpt>
      <trkpt lat="45.54517" lon="2.84681">
        <ele>1443.3853916232</ele>
        <time>2015-08-18T11:42:29Z</time>
      </trkpt>
      <trkpt lat="45.5452" lon="2.84685">
        <ele>1443.3853916232</ele>
        <time>2015-08-18T11:42:34Z</time>
      </trkpt>
      <trkpt lat="45.54522" lon="2.84688">
        <ele>1443.3853916232</ele>
        <time>2015-08-18T11:42:39Z</time>
      </trkpt>
      <trkpt lat="45.54524" lon="2.84693">
        <ele>1437.954515277</ele>
        <time>2015-08-18T11:42:44Z</time>
      </trkpt>
      <trkpt lat="45.54526" lon="2.84697">
        <ele>1437.954515277</ele>
        <time>2015-08-18T11:42:49Z</time>
      </trkpt>
      <trkpt lat="45.54528" lon="2.84703">
        <ele>1437.954515277</ele>
        <time>2015-08-18T11:42:54Z</time>
      </trkpt>
      <trkpt lat="45.54531" lon="2.84706">
        <ele>1432.7615592898</ele>
        <time>2015-08-18T11:42:59Z</time>
      </trkpt>
      <trkpt lat="45.54533" lon="2.84711">
        <ele>1432.7615592898</ele>
        <time>2015-08-18T11:43:04Z</time>
      </trkpt>
      <trkpt lat="45.54536" lon="2.84718">
        <ele>1427.9013245589</ele>
        <time>2015-08-18T11:43:09Z</time>
      </trkpt>
      <trkpt lat="45.54539" lon="2.84726">
        <ele>1427.9013245589</ele>
        <time>2015-08-18T11:43:14Z</time>
      </trkpt>
      <trkpt lat="45.54541" lon="2.84736">
        <ele>1423.4316374229</ele>
        <time>2015-08-18T11:43:19Z</time>
      </trkpt>
      <trkpt lat="45.54543" lon="2.84747">
        <ele>1423.4316374229</ele>
        <time>2015-08-18T11:43:24Z</time>
      </trkpt>
      <trkpt lat="45.54546" lon="2.84756">
        <ele>1419.3471139322</ele>
        <time>2015-08-18T11:43:29Z</time>
      </trkpt>
      <trkpt lat="45.5455" lon="2.84764">
        <ele>1419.3471139322</ele>
        <time>2015-08-18T11:43:34Z</time>
      </trkpt>
      <trkpt lat="45.54553" lon="2.84772">
        <ele>1415.6414971576</ele>
        <time>2015-08-18T11:43:39Z</time>
      </trkpt>
      <trkpt lat="45.54555" lon="2.84782">
        <ele>1415.6414971576</ele>
        <time>2015-08-18T11:43:44Z</time>
      </trkpt>
      <trkpt lat="45.54556" lon="2.84793">
        <ele>1412.3942409841</ele>
        <time>2015-08-18T11:43:49Z</time>
      </trkpt>
      <trkpt lat="45.54558" lon="2.84804">
        <ele>1412.3942409841</ele>
        <time>2015-08-18T11:43:54Z</time>
      </trkpt>
      <trkpt lat="45.54559" lon="2.84812">
        <ele>1409.5478591982</ele>
        <time>2015-08-18T11:43:59Z</time>
      </trkpt>
      <trkpt lat="45.54559" lon="2.84817">
        <ele>1409.5478591982</ele>
        <time>2015-08-18T11:44:04Z</time>
      </trkpt>
      <trkpt lat="45.54559" lon="2.8483">
        <ele>1407.0622956108</ele>
        <time>2015-08-18T11:44:09Z</time>
      </trkpt>
      <trkpt lat="45.54561" lon="2.8484">
        <ele>1407.0622956108</ele>
        <time>2015-08-18T11:44:14Z</time>
      </trkpt>
      <trkpt lat="45.54562" lon="2.84847">
        <ele>1404.7552708479</ele>
        <time>2015-08-18T11:44:19Z</time>
      </trkpt>
      <trkpt lat="45.54562" lon="2.84872">
        <ele>1403.0482484753</ele>
        <time>2015-08-18T11:44:39Z</time>
      </trkpt>
      <trkpt lat="45.54566" lon="2.84871">
        <ele>1403.0482484753</ele>
        <time>2015-08-18T11:44:45Z</time>
      </trkpt>
      <trkpt lat="45.54566" lon="2.84869">
        <ele>1403.0482484753</ele>
        <time>2015-08-18T11:44:49Z</time>
      </trkpt>
      <trkpt lat="45.54566" lon="2.84869">
        <ele>1403.0482484753</ele>
        <time>2015-08-18T11:44:54Z</time>
      </trkpt>
      <trkpt lat="45.54565" lon="2.84868">
        <ele>1403.0482484753</ele>
        <time>2015-08-18T11:45:34Z</time>
      </trkpt>
      <trkpt lat="45.54565" lon="2.84868">
        <ele>1403.0482484753</ele>
        <time>2015-08-18T11:45:39Z</time>
      </trkpt>
      <trkpt lat="45.54565" lon="2.84871">
        <ele>1403.0482484753</ele>
        <time>2015-08-18T11:47:29Z</time>
      </trkpt>
      <trkpt lat="45.54564" lon="2.84879">
        <ele>1402.4309616366</ele>
        <time>2015-08-18T11:48:34Z</time>
      </trkpt>
      <trkpt lat="45.54564" lon="2.84884">
        <ele>1402.4309616366</ele>
        <time>2015-08-18T11:48:39Z</time>
      </trkpt>
      <trkpt lat="45.54563" lon="2.84891">
        <ele>1402.4309616366</ele>
        <time>2015-08-18T11:48:44Z</time>
      </trkpt>
      <trkpt lat="45.54563" lon="2.84899">
        <ele>1402.1580628769</ele>
        <time>2015-08-18T11:48:49Z</time>
      </trkpt>
      <trkpt lat="45.54562" lon="2.84907">
        <ele>1402.1580628769</ele>
        <time>2015-08-18T11:48:54Z</time>
      </trkpt>
      <trkpt lat="45.54563" lon="2.84916">
        <ele>1402.1577898777</ele>
        <time>2015-08-18T11:48:59Z</time>
      </trkpt>
      <trkpt lat="45.54564" lon="2.84925">
        <ele>1402.1577898777</ele>
        <time>2015-08-18T11:49:04Z</time>
      </trkpt>
      <trkpt lat="45.54564" lon="2.84933">
        <ele>1402.4783380676</ele>
        <time>2015-08-18T11:49:09Z</time>
      </trkpt>
      <trkpt lat="45.54563" lon="2.84942">
        <ele>1402.4783380676</ele>
        <time>2015-08-18T11:49:14Z</time>
      </trkpt>
      <trkpt lat="45.54562" lon="2.84952">
        <ele>1403.1348450635</ele>
        <time>2015-08-18T11:49:19Z</time>
      </trkpt>
      <trkpt lat="45.54564" lon="2.84963">
        <ele>1403.1348450635</ele>
        <time>2015-08-18T11:49:24Z</time>
      </trkpt>
      <trkpt lat="45.54561" lon="2.84964">
        <ele>1404.3568080016</ele>
        <time>2015-08-18T11:49:29Z</time>
      </trkpt>
      <trkpt lat="45.54561" lon="2.84964">
        <ele>1404.3568080016</ele>
        <time>2015-08-18T11:49:34Z</time>
      </trkpt>
      <trkpt lat="45.5456" lon="2.84964">
        <ele>1404.3568080016</ele>
        <time>2015-08-18T11:49:59Z</time>
      </trkpt>
      <trkpt lat="45.54558" lon="2.84979">
        <ele>1405.4620770987</ele>
        <time>2015-08-18T11:50:15Z</time>
      </trkpt>
      <trkpt lat="45.54558" lon="2.84982">
        <ele>1405.4620770987</ele>
        <time>2015-08-18T11:50:19Z</time>
      </trkpt>
      <trkpt lat="45.54558" lon="2.84986">
        <ele>1405.4620770987</ele>
        <time>2015-08-18T11:50:27Z</time>
      </trkpt>
      <trkpt lat="45.54556" lon="2.85015">
        <ele>1406.5974674054</ele>
        <time>2015-08-18T11:50:44Z</time>
      </trkpt>
      <trkpt lat="45.54535" lon="2.85047">
        <ele>1408.1442768526</ele>
        <time>2015-08-18T11:51:09Z</time>
      </trkpt>
      <trkpt lat="45.54527" lon="2.85058">
        <ele>1410.0082925735</ele>
        <time>2015-08-18T11:51:17Z</time>
      </trkpt>
      <trkpt lat="45.54526" lon="2.8506">
        <ele>1410.0082925735</ele>
        <time>2015-08-18T11:51:19Z</time>
      </trkpt>
      <trkpt lat="45.54521" lon="2.85063">
        <ele>1410.0082925735</ele>
        <time>2015-08-18T11:51:24Z</time>
      </trkpt>
      <trkpt lat="45.54516" lon="2.85068">
        <ele>1412.2026411607</ele>
        <time>2015-08-18T11:51:29Z</time>
      </trkpt>
      <trkpt lat="45.5451" lon="2.85073">
        <ele>1412.2026411607</ele>
        <time>2015-08-18T11:51:34Z</time>
      </trkpt>
      <trkpt lat="45.54505" lon="2.85078">
        <ele>1414.6813756719</ele>
        <time>2015-08-18T11:51:39Z</time>
      </trkpt>
      <trkpt lat="45.54502" lon="2.8508">
        <ele>1414.6813756719</ele>
        <time>2015-08-18T11:51:44Z</time>
      </trkpt>
      <trkpt lat="45.54499" lon="2.85083">
        <ele>1414.6813756719</ele>
        <time>2015-08-18T11:51:49Z</time>
      </trkpt>
      <trkpt lat="45.54497" lon="2.85085">
        <ele>1417.4592632463</ele>
        <time>2015-08-18T11:51:54Z</time>
      </trkpt>
      <trkpt lat="45.54494" lon="2.85087">
        <ele>1417.4592632463</ele>
        <time>2015-08-18T11:51:59Z</time>
      </trkpt>
      <trkpt lat="45.54491" lon="2.85088">
        <ele>1417.4592632463</ele>
        <time>2015-08-18T11:52:04Z</time>
      </trkpt>
      <trkpt lat="45.54487" lon="2.85089">
        <ele>1420.4487902171</ele>
        <time>2015-08-18T11:52:09Z</time>
      </trkpt>
      <trkpt lat="45.54483" lon="2.8509">
        <ele>1420.4487902171</ele>
        <time>2015-08-18T11:52:17Z</time>
      </trkpt>
      <trkpt lat="45.54476" lon="2.85091">
        <ele>1423.4823593152</ele>
        <time>2015-08-18T11:52:19Z</time>
      </trkpt>
      <trkpt lat="45.54424" lon="2.85062">
        <ele>1425.8719216159</ele>
        <time>2015-08-18T11:53:17Z</time>
      </trkpt>
      <trkpt lat="45.54377" lon="2.85055">
        <ele>1425.8150652462</ele>
        <time>2015-08-18T11:53:44Z</time>
      </trkpt>
      <trkpt lat="45.54362" lon="2.85053">
        <ele>1425.5834787053</ele>
        <time>2015-08-18T11:54:34Z</time>
      </trkpt>
      <trkpt lat="45.54336" lon="2.84989">
        <ele>1422.1382825199</ele>
        <time>2015-08-18T11:54:43Z</time>
      </trkpt>
      <trkpt lat="45.543" lon="2.84902">
        <ele>1418.8846145717</ele>
        <time>2015-08-18T11:55:40Z</time>
      </trkpt>
      <trkpt lat="45.54298" lon="2.84899">
        <ele>1418.8846145717</ele>
        <time>2015-08-18T11:55:40Z</time>
      </trkpt>
      <trkpt lat="45.54298" lon="2.84893">
        <ele>1418.8846145717</ele>
        <time>2015-08-18T11:55:48Z</time>
      </trkpt>
      <trkpt lat="45.5428" lon="2.84818">
        <ele>1412.2907127899</ele>
        <time>2015-08-18T11:56:42Z</time>
      </trkpt>
      <trkpt lat="45.5428" lon="2.84819">
        <ele>1412.2907127899</ele>
        <time>2015-08-18T11:56:46Z</time>
      </trkpt>
      <trkpt lat="45.54274" lon="2.84816">
        <ele>1412.2907127899</ele>
        <time>2015-08-18T11:56:54Z</time>
      </trkpt>
      <trkpt lat="45.54241" lon="2.84743">
        <ele>1405.5358954174</ele>
        <time>2015-08-18T11:57:42Z</time>
      </trkpt>
      <trkpt lat="45.54241" lon="2.8474">
        <ele>1405.5358954174</ele>
        <time>2015-08-18T11:57:44Z</time>
      </trkpt>
      <trkpt lat="45.54238" lon="2.84731">
        <ele>1405.5358954174</ele>
        <time>2015-08-18T11:57:49Z</time>
      </trkpt>
      <trkpt lat="45.54229" lon="2.84696">
        <ele>1399.2466330362</ele>
        <time>2015-08-18T11:58:41Z</time>
      </trkpt>
      <trkpt lat="45.54215" lon="2.84662">
        <ele>1393.1377901824</ele>
        <time>2015-08-18T11:58:50Z</time>
      </trkpt>
      <trkpt lat="45.542" lon="2.84641">
        <ele>1387.2476369634</ele>
        <time>2015-08-18T11:59:05Z</time>
      </trkpt>
      <trkpt lat="45.54175" lon="2.84602">
        <ele>1381.1357323219</ele>
        <time>2015-08-18T11:59:41Z</time>
      </trkpt>
      <trkpt lat="45.54172" lon="2.84596">
        <ele>1381.1357323219</ele>
        <time>2015-08-18T11:59:47Z</time>
      </trkpt>
      <trkpt lat="45.54167" lon="2.84592">
        <ele>1375.5045030234</ele>
        <time>2015-08-18T11:59:49Z</time>
      </trkpt>
      <trkpt lat="45.54153" lon="2.84579">
        <ele>1370.2110079894</ele>
        <time>2015-08-18T12:00:02Z</time>
      </trkpt>
      <trkpt lat="45.54152" lon="2.84578">
        <ele>1370.2110079894</ele>
        <time>2015-08-18T12:00:10Z</time>
      </trkpt>
      <trkpt lat="45.54123" lon="2.84534">
        <ele>1364.8049684487</ele>
        <time>2015-08-18T12:00:44Z</time>
      </trkpt>
      <trkpt lat="45.54124" lon="2.84532">
        <ele>1364.8049684487</ele>
        <time>2015-08-18T12:00:49Z</time>
      </trkpt>
      <trkpt lat="45.5412" lon="2.84529">
        <ele>1364.8049684487</ele>
        <time>2015-08-18T12:01:00Z</time>
      </trkpt>
      <trkpt lat="45.54086" lon="2.84467">
        <ele>1358.9704952198</ele>
        <time>2015-08-18T12:01:44Z</time>
      </trkpt>
      <trkpt lat="45.5409" lon="2.84457">
        <ele>1358.9704952198</ele>
        <time>2015-08-18T12:02:33Z</time>
      </trkpt>
      <trkpt lat="45.54046" lon="2.84443">
        <ele>1353.2376265116</ele>
        <time>2015-08-18T12:02:44Z</time>
      </trkpt>
      <trkpt lat="45.54011" lon="2.8443">
        <ele>1347.477556451</ele>
        <time>2015-08-18T12:03:46Z</time>
      </trkpt>
      <trkpt lat="45.54008" lon="2.8443">
        <ele>1347.477556451</ele>
        <time>2015-08-18T12:03:54Z</time>
      </trkpt>
      <trkpt lat="45.54007" lon="2.84427">
        <ele>1347.477556451</ele>
        <time>2015-08-18T12:03:59Z</time>
      </trkpt>
      <trkpt lat="45.54005" lon="2.84424">
        <ele>1347.477556451</ele>
        <time>2015-08-18T12:04:04Z</time>
      </trkpt>
      <trkpt lat="45.54003" lon="2.84421">
        <ele>1342.0898448289</ele>
        <time>2015-08-18T12:04:21Z</time>
      </trkpt>
      <trkpt lat="45.53996" lon="2.84418">
        <ele>1342.0898448289</ele>
        <time>2015-08-18T12:04:44Z</time>
      </trkpt>
      <trkpt lat="45.53948" lon="2.84381">
        <ele>1336.9392668481</ele>
        <time>2015-08-18T12:05:34Z</time>
      </trkpt>
      <trkpt lat="45.53939" lon="2.84375">
        <ele>1332.4474675912</ele>
        <time>2015-08-18T12:05:44Z</time>
      </trkpt>
      <trkpt lat="45.53939" lon="2.84359">
        <ele>1328.5132539441</ele>
        <time>2015-08-18T12:06:15Z</time>
      </trkpt>
      <trkpt lat="45.53913" lon="2.84342">
        <ele>1325.0844857419</ele>
        <time>2015-08-18T12:06:29Z</time>
      </trkpt>
      <trkpt lat="45.53899" lon="2.8434">
        <ele>1322.2554903291</ele>
        <time>2015-08-18T12:06:49Z</time>
      </trkpt>
      <trkpt lat="45.53883" lon="2.84339">
        <ele>1319.6940036402</ele>
        <time>2015-08-18T12:07:03Z</time>
      </trkpt>
      <trkpt lat="45.53882" lon="2.84338">
        <ele>1319.6940036402</ele>
        <time>2015-08-18T12:07:04Z</time>
      </trkpt>
      <trkpt lat="45.53863" lon="2.84338">
        <ele>1317.3939983774</ele>
        <time>2015-08-18T12:07:18Z</time>
      </trkpt>
      <trkpt lat="45.53862" lon="2.84339">
        <ele>1317.3939983774</ele>
        <time>2015-08-18T12:07:19Z</time>
      </trkpt>
      <trkpt lat="45.53851" lon="2.84334">
        <ele>1315.3491082665</ele>
        <time>2015-08-18T12:07:34Z</time>
      </trkpt>
      <trkpt lat="45.53842" lon="2.84328">
        <ele>1313.6967906564</ele>
        <time>2015-08-18T12:07:35Z</time>
      </trkpt>
      <trkpt lat="45.53838" lon="2.84325">
        <ele>1313.6967906564</ele>
        <time>2015-08-18T12:07:39Z</time>
      </trkpt>
      <trkpt lat="45.5383" lon="2.84323">
        <ele>1312.202996879</ele>
        <time>2015-08-18T12:07:52Z</time>
      </trkpt>
      <trkpt lat="45.5381" lon="2.84308">
        <ele>1310.8089314102</ele>
        <time>2015-08-18T12:08:15Z</time>
      </trkpt>
      <trkpt lat="45.53793" lon="2.84298">
        <ele>1310.2524458696</ele>
        <time>2015-08-18T12:08:38Z</time>
      </trkpt>
      <trkpt lat="45.53797" lon="2.84319">
        <ele>1310.0043180524</ele>
        <time>2015-08-18T12:09:08Z</time>
      </trkpt>
      <trkpt lat="45.53811" lon="2.8434">
        <ele>1309.2563204388</ele>
        <time>2015-08-18T12:09:29Z</time>
      </trkpt>
      <trkpt lat="45.53816" lon="2.84356">
        <ele>1308.2265885046</ele>
        <time>2015-08-18T12:09:44Z</time>
      </trkpt>
      <trkpt lat="45.53816" lon="2.84362">
        <ele>1308.2265885046</ele>
        <time>2015-08-18T12:09:49Z</time>
      </trkpt>
      <trkpt lat="45.53838" lon="2.84386">
        <ele>1306.6857484444</ele>
        <time>2015-08-18T12:10:20Z</time>
      </trkpt>
      <trkpt lat="45.53853" lon="2.84393">
        <ele>1304.9992233587</ele>
        <time>2015-08-18T12:10:34Z</time>
      </trkpt>
      <trkpt lat="45.53865" lon="2.84402">
        <ele>1303.2322658808</ele>
        <time>2015-08-18T12:10:45Z</time>
      </trkpt>
      <trkpt lat="45.53867" lon="2.84404">
        <ele>1303.2322658808</ele>
        <time>2015-08-18T12:10:56Z</time>
      </trkpt>
      <trkpt lat="45.53859" lon="2.84421">
        <ele>1300.8115509372</ele>
        <time>2015-08-18T12:11:26Z</time>
      </trkpt>
      <trkpt lat="45.53834" lon="2.84413">
        <ele>1298.2309726528</ele>
        <time>2015-08-18T12:11:44Z</time>
      </trkpt>
      <trkpt lat="45.53827" lon="2.84409">
        <ele>1298.2309726528</ele>
        <time>2015-08-18T12:11:49Z</time>
      </trkpt>
      <trkpt lat="45.53815" lon="2.84407">
        <ele>1295.7325039955</ele>
        <time>2015-08-18T12:11:54Z</time>
      </trkpt>
      <trkpt lat="45.53812" lon="2.84408">
        <ele>1295.7325039955</ele>
        <time>2015-08-18T12:12:15Z</time>
      </trkpt>
      <trkpt lat="45.53766" lon="2.84397">
        <ele>1292.4305300794</ele>
        <time>2015-08-18T12:12:39Z</time>
      </trkpt>
      <trkpt lat="45.53759" lon="2.844">
        <ele>1292.4305300794</ele>
        <time>2015-08-18T12:12:48Z</time>
      </trkpt>
      <trkpt lat="45.53759" lon="2.84402">
        <ele>1292.4305300794</ele>
        <time>2015-08-18T12:12:49Z</time>
      </trkpt>
      <trkpt lat="45.53799" lon="2.84448">
        <ele>1286.7574316945</ele>
        <time>2015-08-18T12:13:54Z</time>
      </trkpt>
      <trkpt lat="45.53744" lon="2.84451">
        <ele>1280.7981687487</ele>
        <time>2015-08-18T12:14:51Z</time>
      </trkpt>
      <trkpt lat="45.53736" lon="2.84451">
        <ele>1280.7981687487</ele>
        <time>2015-08-18T12:15:00Z</time>
      </trkpt>
      <trkpt lat="45.53714" lon="2.84427">
        <ele>1275.289248298</ele>
        <time>2015-08-18T12:15:26Z</time>
      </trkpt>
      <trkpt lat="45.53714" lon="2.84427">
        <ele>1275.289248298</ele>
        <time>2015-08-18T12:15:34Z</time>
      </trkpt>
      <trkpt lat="45.53685" lon="2.84417">
        <ele>1270.0759686582</ele>
        <time>2015-08-18T12:15:49Z</time>
      </trkpt>
      <trkpt lat="45.53684" lon="2.84413">
        <ele>1270.0759686582</ele>
        <time>2015-08-18T12:16:00Z</time>
      </trkpt>
      <trkpt lat="45.53665" lon="2.84398">
        <ele>1265.1438414977</ele>
        <time>2015-08-18T12:16:32Z</time>
      </trkpt>
      <trkpt lat="45.53658" lon="2.84391">
        <ele>1265.1438414977</ele>
        <time>2015-08-18T12:16:42Z</time>
      </trkpt>
      <trkpt lat="45.53657" lon="2.84371">
        <ele>1260.8388904866</ele>
        <time>2015-08-18T12:16:46Z</time>
      </trkpt>
      <trkpt lat="45.53654" lon="2.84362">
        <ele>1260.8388904866</ele>
        <time>2015-08-18T12:16:49Z</time>
      </trkpt>
      <trkpt lat="45.53655" lon="2.84358">
        <ele>1257.0475714558</ele>
        <time>2015-08-18T12:16:54Z</time>
      </trkpt>
      <trkpt lat="45.53637" lon="2.84349">
        <ele>1253.6919965148</ele>
        <time>2015-08-18T12:17:07Z</time>
      </trkpt>
      <trkpt lat="45.53593" lon="2.84357">
        <ele>1250.8860509898</ele>
        <time>2015-08-18T12:17:49Z</time>
      </trkpt>
      <trkpt lat="45.53555" lon="2.84424">
        <ele>1248.4310085445</ele>
        <time>2015-08-18T12:18:50Z</time>
      </trkpt>
      <trkpt lat="45.53552" lon="2.8443">
        <ele>1248.4310085445</ele>
        <time>2015-08-18T12:18:54Z</time>
      </trkpt>
      <trkpt lat="45.53541" lon="2.84458">
        <ele>1246.2569793076</ele>
        <time>2015-08-18T12:19:49Z</time>
      </trkpt>
      <trkpt lat="45.53601" lon="2.84563">
        <ele>1240.5802851663</ele>
        <time>2015-08-18T12:20:56Z</time>
      </trkpt>
      <trkpt lat="45.53637" lon="2.84593">
        <ele>1235.1825675406</ele>
        <time>2015-08-18T12:21:36Z</time>
      </trkpt>
      <trkpt lat="45.5365" lon="2.84595">
        <ele>1230.4107803497</ele>
        <time>2015-08-18T12:21:43Z</time>
      </trkpt>
      <trkpt lat="45.53651" lon="2.84596">
        <ele>1230.4107803497</ele>
        <time>2015-08-18T12:21:44Z</time>
      </trkpt>
      <trkpt lat="45.53661" lon="2.84605">
        <ele>1226.3251521506</ele>
        <time>2015-08-18T12:21:51Z</time>
      </trkpt>
      <trkpt lat="45.53664" lon="2.84608">
        <ele>1226.3251521506</ele>
        <time>2015-08-18T12:21:54Z</time>
      </trkpt>
      <trkpt lat="45.53666" lon="2.84611">
        <ele>1226.3251521506</ele>
        <time>2015-08-18T12:21:59Z</time>
      </trkpt>
      <trkpt lat="45.53673" lon="2.84619">
        <ele>1222.8209484638</ele>
        <time>2015-08-18T12:22:04Z</time>
      </trkpt>
      <trkpt lat="45.53676" lon="2.84626">
        <ele>1222.8209484638</ele>
        <time>2015-08-18T12:22:09Z</time>
      </trkpt>
      <trkpt lat="45.5368" lon="2.84631">
        <ele>1219.8282246705</ele>
        <time>2015-08-18T12:22:14Z</time>
      </trkpt>
      <trkpt lat="45.53685" lon="2.84634">
        <ele>1219.8282246705</ele>
        <time>2015-08-18T12:22:19Z</time>
      </trkpt>
      <trkpt lat="45.53689" lon="2.84637">
        <ele>1217.2950574009</ele>
        <time>2015-08-18T12:22:31Z</time>
      </trkpt>
      <trkpt lat="45.53709" lon="2.84663">
        <ele>1215.027850368</ele>
        <time>2015-08-18T12:22:49Z</time>
      </trkpt>
      <trkpt lat="45.53775" lon="2.84706">
        <ele>1212.5149489106</ele>
        <time>2015-08-18T12:23:49Z</time>
      </trkpt>
      <trkpt lat="45.5379" lon="2.84734">
        <ele>1210.3493288123</ele>
        <time>2015-08-18T12:24:47Z</time>
      </trkpt>
      <trkpt lat="45.53779" lon="2.84773">
        <ele>1207.9697195595</ele>
        <time>2015-08-18T12:24:49Z</time>
      </trkpt>
      <trkpt lat="45.53777" lon="2.84784">
        <ele>1207.9697195595</ele>
        <time>2015-08-18T12:24:54Z</time>
      </trkpt>
      <trkpt lat="45.53777" lon="2.84795">
        <ele>1205.7933586005</ele>
        <time>2015-08-18T12:24:59Z</time>
      </trkpt>
      <trkpt lat="45.53778" lon="2.84802">
        <ele>1205.7933586005</ele>
        <time>2015-08-18T12:25:12Z</time>
      </trkpt>
      <trkpt lat="45.53788" lon="2.84874">
        <ele>1203.3847939654</ele>
        <time>2015-08-18T12:25:49Z</time>
      </trkpt>
      <trkpt lat="45.53787" lon="2.84882">
        <ele>1203.3847939654</ele>
        <time>2015-08-18T12:25:54Z</time>
      </trkpt>
      <trkpt lat="45.53788" lon="2.8489">
        <ele>1201.3067324371</ele>
        <time>2015-08-18T12:26:05Z</time>
      </trkpt>
      <trkpt lat="45.53738" lon="2.85092">
        <ele>1197.7882313686</ele>
        <time>2015-08-18T12:27:54Z</time>
      </trkpt>
      <trkpt lat="45.53705" lon="2.85159">
        <ele>1193.7144122887</ele>
        <time>2015-08-18T12:28:39Z</time>
      </trkpt>
      <trkpt lat="45.53701" lon="2.85176">
        <ele>1190.0654429624</ele>
        <time>2015-08-18T12:28:50Z</time>
      </trkpt>
      <trkpt lat="45.53684" lon="2.85217">
        <ele>1186.653037065</ele>
        <time>2015-08-18T12:29:18Z</time>
      </trkpt>
      <trkpt lat="45.53681" lon="2.85225">
        <ele>1186.653037065</ele>
        <time>2015-08-18T12:29:21Z</time>
      </trkpt>
      <trkpt lat="45.53681" lon="2.85234">
        <ele>1183.5182252598</ele>
        <time>2015-08-18T12:29:28Z</time>
      </trkpt>
      <trkpt lat="45.53679" lon="2.85259">
        <ele>1180.4388263577</ele>
        <time>2015-08-18T12:29:39Z</time>
      </trkpt>
      <trkpt lat="45.53676" lon="2.85267">
        <ele>1180.4388263577</ele>
        <time>2015-08-18T12:29:49Z</time>
      </trkpt>
      <trkpt lat="45.537" lon="2.85313">
        <ele>1177.3673288523</ele>
        <time>2015-08-18T12:30:20Z</time>
      </trkpt>
      <trkpt lat="45.53713" lon="2.85345">
        <ele>1174.5478950565</ele>
        <time>2015-08-18T12:30:34Z</time>
      </trkpt>
      <trkpt lat="45.53713" lon="2.85347">
        <ele>1174.5478950565</ele>
        <time>2015-08-18T12:30:34Z</time>
      </trkpt>
      <trkpt lat="45.5373" lon="2.85366">
        <ele>1172.1916200009</ele>
        <time>2015-08-18T12:30:54Z</time>
      </trkpt>
      <trkpt lat="45.53734" lon="2.85373">
        <ele>1172.1916200009</ele>
        <time>2015-08-18T12:30:59Z</time>
      </trkpt>
      <trkpt lat="45.53735" lon="2.85381">
        <ele>1170.2477956919</ele>
        <time>2015-08-18T12:31:04Z</time>
      </trkpt>
      <trkpt lat="45.53752" lon="2.85421">
        <ele>1168.66828173</ele>
        <time>2015-08-18T12:31:34Z</time>
      </trkpt>
      <trkpt lat="45.53771" lon="2.85447">
        <ele>1167.4651063834</ele>
        <time>2015-08-18T12:31:49Z</time>
      </trkpt>
      <trkpt lat="45.53775" lon="2.85451">
        <ele>1167.4651063834</ele>
        <time>2015-08-18T12:32:00Z</time>
      </trkpt>
      <trkpt lat="45.53792" lon="2.85473">
        <ele>1166.8069037279</ele>
        <time>2015-08-18T12:32:13Z</time>
      </trkpt>
      <trkpt lat="45.53821" lon="2.8553">
        <ele>1166.4881515488</ele>
        <time>2015-08-18T12:33:00Z</time>
      </trkpt>
      <trkpt lat="45.5382" lon="2.85564">
        <ele>1166.5769287958</ele>
        <time>2015-08-18T12:33:13Z</time>
      </trkpt>
      <trkpt lat="45.5382" lon="2.85566">
        <ele>1166.5769287958</ele>
        <time>2015-08-18T12:33:14Z</time>
      </trkpt>
      <trkpt lat="45.53823" lon="2.85623">
        <ele>1166.7893782537</ele>
        <time>2015-08-18T12:33:54Z</time>
      </trkpt>
      <trkpt lat="45.53836" lon="2.85657">
        <ele>1167.1648762727</ele>
        <time>2015-08-18T12:34:25Z</time>
      </trkpt>
      <trkpt lat="45.53851" lon="2.85688">
        <ele>1167.6819201625</ele>
        <time>2015-08-18T12:34:39Z</time>
      </trkpt>
      <trkpt lat="45.53852" lon="2.8569">
        <ele>1167.6819201625</ele>
        <time>2015-08-18T12:34:39Z</time>
      </trkpt>
      <trkpt lat="45.53856" lon="2.85694">
        <ele>1167.6819201625</ele>
        <time>2015-08-18T12:34:44Z</time>
      </trkpt>
      <trkpt lat="45.53864" lon="2.85702">
        <ele>1168.5076699201</ele>
        <time>2015-08-18T12:34:52Z</time>
      </trkpt>
      <trkpt lat="45.53865" lon="2.85703">
        <ele>1168.5076699201</ele>
        <time>2015-08-18T12:35:00Z</time>
      </trkpt>
      <trkpt lat="45.53889" lon="2.85728">
        <ele>1169.5945400762</ele>
        <time>2015-08-18T12:35:14Z</time>
      </trkpt>
      <trkpt lat="45.53916" lon="2.85769">
        <ele>1170.955528313</ele>
        <time>2015-08-18T12:35:42Z</time>
      </trkpt>
      <trkpt lat="45.53917" lon="2.85771">
        <ele>1170.955528313</ele>
        <time>2015-08-18T12:35:44Z</time>
      </trkpt>
      <trkpt lat="45.53923" lon="2.85786">
        <ele>1171.6942023116</ele>
        <time>2015-08-18T12:35:53Z</time>
      </trkpt>
      <trkpt lat="45.53924" lon="2.85788">
        <ele>1171.6942023116</ele>
        <time>2015-08-18T12:35:54Z</time>
      </trkpt>
      <trkpt lat="45.53933" lon="2.8584">
        <ele>1171.3566254108</ele>
        <time>2015-08-18T12:36:19Z</time>
      </trkpt>
      <trkpt lat="45.53953" lon="2.85903">
        <ele>1169.6695560493</ele>
        <time>2015-08-18T12:36:54Z</time>
      </trkpt>
      <trkpt lat="45.53954" lon="2.8591">
        <ele>1169.6695560493</ele>
        <time>2015-08-18T12:37:02Z</time>
      </trkpt>
      <trkpt lat="45.53953" lon="2.85921">
        <ele>1168.1131666784</ele>
        <time>2015-08-18T12:37:04Z</time>
      </trkpt>
      <trkpt lat="45.53957" lon="2.85941">
        <ele>1166.6464602006</ele>
        <time>2015-08-18T12:37:18Z</time>
      </trkpt>
      <trkpt lat="45.53958" lon="2.85943">
        <ele>1166.6464602006</ele>
        <time>2015-08-18T12:37:19Z</time>
      </trkpt>
      <trkpt lat="45.53972" lon="2.86009">
        <ele>1164.842310654</ele>
        <time>2015-08-18T12:37:54Z</time>
      </trkpt>
      <trkpt lat="45.53973" lon="2.86018">
        <ele>1164.842310654</ele>
        <time>2015-08-18T12:37:59Z</time>
      </trkpt>
      <trkpt lat="45.5398" lon="2.86031">
        <ele>1162.8393276355</ele>
        <time>2015-08-18T12:38:15Z</time>
      </trkpt>
      <trkpt lat="45.53992" lon="2.86064">
        <ele>1160.7234534919</ele>
        <time>2015-08-18T12:38:33Z</time>
      </trkpt>
      <trkpt lat="45.53994" lon="2.86065">
        <ele>1160.7234534919</ele>
        <time>2015-08-18T12:38:34Z</time>
      </trkpt>
      <trkpt lat="45.53996" lon="2.8607">
        <ele>1160.7234534919</ele>
        <time>2015-08-18T12:38:39Z</time>
      </trkpt>
      <trkpt lat="45.53992" lon="2.86073">
        <ele>1158.9495025381</ele>
        <time>2015-08-18T12:38:44Z</time>
      </trkpt>
      <trkpt lat="45.53992" lon="2.86073">
        <ele>1158.9495025381</ele>
        <time>2015-08-18T12:38:49Z</time>
      </trkpt>
      <trkpt lat="45.53995" lon="2.86077">
        <ele>1158.9495025381</ele>
        <time>2015-08-18T12:38:59Z</time>
      </trkpt>
      <trkpt lat="45.53992" lon="2.86079">
        <ele>1158.9495025381</ele>
        <time>2015-08-18T12:39:04Z</time>
      </trkpt>
      <trkpt lat="45.53992" lon="2.86079">
        <ele>1158.9495025381</ele>
        <time>2015-08-18T12:39:09Z</time>
      </trkpt>
    </trkseg>
  </trk>
</gpx>